<?xml version="1.0" encoding="UTF-8" standalone="no" ?>
<gpx xmlns="http://www.topografix.com/GPX/1/1" xmlns:xsi="http://www.w3.org/2001/XMLSchema-instance" xsi:schemaLocation="http://www.topografix.com/GPX/1/1 http://www.topografix.com/GPX/1/1/gpx.xsd" version="1.1" creator="VisuGPX - https://www.visugpx.com">
  <metadata>
    <name>trail du 01/05/2014</name>
    <desc><![CDATA[parcour tres gras]]></desc>
  </metadata>
  <trk>
    <name><![CDATA[Sportrate Track]]></name>
    <trkseg>
      <trkpt lat="46.39326" lon="5.70255">
        <ele>669.6</ele>
        <time>2014-05-01T15:03:45.304Z</time>
      </trkpt>
      <trkpt lat="46.39321" lon="5.70251">
        <ele>670.9</ele>
        <time>2014-05-01T15:03:48.283Z</time>
      </trkpt>
      <trkpt lat="46.39317" lon="5.70252">
        <ele>672.3</ele>
        <time>2014-05-01T15:03:52.309Z</time>
      </trkpt>
      <trkpt lat="46.39318" lon="5.70257">
        <ele>675.5</ele>
        <time>2014-05-01T15:03:55.294Z</time>
      </trkpt>
      <trkpt lat="46.39319" lon="5.70257">
        <ele>674.8</ele>
        <time>2014-05-01T15:03:58.294Z</time>
      </trkpt>
      <trkpt lat="46.3932" lon="5.70262">
        <ele>677.7</ele>
        <time>2014-05-01T15:04:01.294Z</time>
      </trkpt>
      <trkpt lat="46.39326" lon="5.70284">
        <ele>694.4</ele>
        <time>2014-05-01T15:04:04.295Z</time>
      </trkpt>
      <trkpt lat="46.39319" lon="5.70279">
        <ele>695</ele>
        <time>2014-05-01T15:04:07.297Z</time>
      </trkpt>
      <trkpt lat="46.39313" lon="5.70275">
        <ele>691.7</ele>
        <time>2014-05-01T15:04:10.297Z</time>
      </trkpt>
      <trkpt lat="46.39318" lon="5.70272">
        <ele>690.4</ele>
        <time>2014-05-01T15:04:13.302Z</time>
      </trkpt>
      <trkpt lat="46.39323" lon="5.70273">
        <ele>691.3</ele>
        <time>2014-05-01T15:04:15.387Z</time>
      </trkpt>
      <trkpt lat="46.39331" lon="5.70274">
        <ele>690.2</ele>
        <time>2014-05-01T15:04:18.296Z</time>
      </trkpt>
      <trkpt lat="46.39338" lon="5.70275">
        <ele>690.3</ele>
        <time>2014-05-01T15:04:21.297Z</time>
      </trkpt>
      <trkpt lat="46.39346" lon="5.70276">
        <ele>688.9</ele>
        <time>2014-05-01T15:04:24.298Z</time>
      </trkpt>
      <trkpt lat="46.39355" lon="5.70277">
        <ele>687.2</ele>
        <time>2014-05-01T15:04:27.352Z</time>
      </trkpt>
      <trkpt lat="46.39364" lon="5.70278">
        <ele>687.3</ele>
        <time>2014-05-01T15:04:30.343Z</time>
      </trkpt>
      <trkpt lat="46.39372" lon="5.70279">
        <ele>687.7</ele>
        <time>2014-05-01T15:04:33.313Z</time>
      </trkpt>
      <trkpt lat="46.3938" lon="5.7028">
        <ele>686.8</ele>
        <time>2014-05-01T15:04:36.372Z</time>
      </trkpt>
      <trkpt lat="46.39388" lon="5.70283">
        <ele>687</ele>
        <time>2014-05-01T15:04:39.355Z</time>
      </trkpt>
      <trkpt lat="46.39395" lon="5.70284">
        <ele>686.6</ele>
        <time>2014-05-01T15:04:42.298Z</time>
      </trkpt>
      <trkpt lat="46.39402" lon="5.70286">
        <ele>689.4</ele>
        <time>2014-05-01T15:04:45.357Z</time>
      </trkpt>
      <trkpt lat="46.3941" lon="5.70288">
        <ele>689.5</ele>
        <time>2014-05-01T15:04:48.349Z</time>
      </trkpt>
      <trkpt lat="46.39418" lon="5.7029">
        <ele>689.1</ele>
        <time>2014-05-01T15:04:51.326Z</time>
      </trkpt>
      <trkpt lat="46.39426" lon="5.70291">
        <ele>689.6</ele>
        <time>2014-05-01T15:04:54.336Z</time>
      </trkpt>
      <trkpt lat="46.39434" lon="5.70294">
        <ele>690.3</ele>
        <time>2014-05-01T15:04:57.358Z</time>
      </trkpt>
      <trkpt lat="46.39443" lon="5.70297">
        <ele>692.1</ele>
        <time>2014-05-01T15:05:00.336Z</time>
      </trkpt>
      <trkpt lat="46.3945" lon="5.703">
        <ele>694.7</ele>
        <time>2014-05-01T15:05:03.300Z</time>
      </trkpt>
      <trkpt lat="46.39458" lon="5.70302">
        <ele>696.6</ele>
        <time>2014-05-01T15:05:06.359Z</time>
      </trkpt>
      <trkpt lat="46.39466" lon="5.70305">
        <ele>696</ele>
        <time>2014-05-01T15:05:09.356Z</time>
      </trkpt>
      <trkpt lat="46.39474" lon="5.70309">
        <ele>694.4</ele>
        <time>2014-05-01T15:05:12.300Z</time>
      </trkpt>
      <trkpt lat="46.39482" lon="5.70312">
        <ele>694.5</ele>
        <time>2014-05-01T15:05:15.418Z</time>
      </trkpt>
      <trkpt lat="46.3949" lon="5.70312">
        <ele>694.1</ele>
        <time>2014-05-01T15:05:18.361Z</time>
      </trkpt>
      <trkpt lat="46.39498" lon="5.70314">
        <ele>693.9</ele>
        <time>2014-05-01T15:05:21.323Z</time>
      </trkpt>
      <trkpt lat="46.39505" lon="5.70316">
        <ele>694.5</ele>
        <time>2014-05-01T15:05:24.392Z</time>
      </trkpt>
      <trkpt lat="46.39513" lon="5.70318">
        <ele>693.7</ele>
        <time>2014-05-01T15:05:27.361Z</time>
      </trkpt>
      <trkpt lat="46.39521" lon="5.70318">
        <ele>693.6</ele>
        <time>2014-05-01T15:05:30.318Z</time>
      </trkpt>
      <trkpt lat="46.39528" lon="5.70318">
        <ele>694.5</ele>
        <time>2014-05-01T15:05:33.358Z</time>
      </trkpt>
      <trkpt lat="46.39536" lon="5.70317">
        <ele>695.5</ele>
        <time>2014-05-01T15:05:36.381Z</time>
      </trkpt>
      <trkpt lat="46.39542" lon="5.70318">
        <ele>697.3</ele>
        <time>2014-05-01T15:05:39.336Z</time>
      </trkpt>
      <trkpt lat="46.3955" lon="5.70319">
        <ele>697.6</ele>
        <time>2014-05-01T15:05:42.342Z</time>
      </trkpt>
      <trkpt lat="46.39558" lon="5.7032">
        <ele>697.2</ele>
        <time>2014-05-01T15:05:45.355Z</time>
      </trkpt>
      <trkpt lat="46.39566" lon="5.70321">
        <ele>696.6</ele>
        <time>2014-05-01T15:05:48.341Z</time>
      </trkpt>
      <trkpt lat="46.39574" lon="5.70323">
        <ele>696.9</ele>
        <time>2014-05-01T15:05:51.307Z</time>
      </trkpt>
      <trkpt lat="46.39581" lon="5.70325">
        <ele>696.3</ele>
        <time>2014-05-01T15:05:54.435Z</time>
      </trkpt>
      <trkpt lat="46.39588" lon="5.70328">
        <ele>696.7</ele>
        <time>2014-05-01T15:05:57.344Z</time>
      </trkpt>
      <trkpt lat="46.39594" lon="5.70333">
        <ele>698.3</ele>
        <time>2014-05-01T15:06:00.306Z</time>
      </trkpt>
      <trkpt lat="46.396" lon="5.70338">
        <ele>698.3</ele>
        <time>2014-05-01T15:06:03.412Z</time>
      </trkpt>
      <trkpt lat="46.39607" lon="5.70343">
        <ele>698.7</ele>
        <time>2014-05-01T15:06:06.356Z</time>
      </trkpt>
      <trkpt lat="46.39612" lon="5.70348">
        <ele>700</ele>
        <time>2014-05-01T15:06:09.315Z</time>
      </trkpt>
      <trkpt lat="46.39618" lon="5.70353">
        <ele>700.6</ele>
        <time>2014-05-01T15:06:12.394Z</time>
      </trkpt>
      <trkpt lat="46.39624" lon="5.70356">
        <ele>701</ele>
        <time>2014-05-01T15:06:15.364Z</time>
      </trkpt>
      <trkpt lat="46.39631" lon="5.70359">
        <ele>701.9</ele>
        <time>2014-05-01T15:06:18.322Z</time>
      </trkpt>
      <trkpt lat="46.39638" lon="5.70361">
        <ele>702.3</ele>
        <time>2014-05-01T15:06:21.361Z</time>
      </trkpt>
      <trkpt lat="46.39645" lon="5.7036">
        <ele>702.4</ele>
        <time>2014-05-01T15:06:24.386Z</time>
      </trkpt>
      <trkpt lat="46.39652" lon="5.7036">
        <ele>702.3</ele>
        <time>2014-05-01T15:06:27.330Z</time>
      </trkpt>
      <trkpt lat="46.39659" lon="5.70357">
        <ele>702.8</ele>
        <time>2014-05-01T15:06:30.334Z</time>
      </trkpt>
      <trkpt lat="46.39666" lon="5.70352">
        <ele>703.6</ele>
        <time>2014-05-01T15:06:33.345Z</time>
      </trkpt>
      <trkpt lat="46.39673" lon="5.70348">
        <ele>704.3</ele>
        <time>2014-05-01T15:06:36.340Z</time>
      </trkpt>
      <trkpt lat="46.39679" lon="5.70344">
        <ele>705</ele>
        <time>2014-05-01T15:06:39.310Z</time>
      </trkpt>
      <trkpt lat="46.39685" lon="5.70339">
        <ele>705.4</ele>
        <time>2014-05-01T15:06:42.327Z</time>
      </trkpt>
      <trkpt lat="46.39692" lon="5.70334">
        <ele>704.8</ele>
        <time>2014-05-01T15:06:45.348Z</time>
      </trkpt>
      <trkpt lat="46.39696" lon="5.70328">
        <ele>705.6</ele>
        <time>2014-05-01T15:06:48.308Z</time>
      </trkpt>
      <trkpt lat="46.39701" lon="5.70321">
        <ele>705.2</ele>
        <time>2014-05-01T15:06:51.309Z</time>
      </trkpt>
      <trkpt lat="46.39707" lon="5.70317">
        <ele>706</ele>
        <time>2014-05-01T15:06:54.352Z</time>
      </trkpt>
      <trkpt lat="46.39712" lon="5.70314">
        <ele>704.5</ele>
        <time>2014-05-01T15:06:57.343Z</time>
      </trkpt>
      <trkpt lat="46.39717" lon="5.70311">
        <ele>705</ele>
        <time>2014-05-01T15:07:00.393Z</time>
      </trkpt>
      <trkpt lat="46.39721" lon="5.70309">
        <ele>703.9</ele>
        <time>2014-05-01T15:07:03.359Z</time>
      </trkpt>
      <trkpt lat="46.39725" lon="5.70306">
        <ele>705.4</ele>
        <time>2014-05-01T15:07:06.322Z</time>
      </trkpt>
      <trkpt lat="46.39731" lon="5.70301">
        <ele>704.7</ele>
        <time>2014-05-01T15:07:09.369Z</time>
      </trkpt>
      <trkpt lat="46.39737" lon="5.70296">
        <ele>705.5</ele>
        <time>2014-05-01T15:07:12.364Z</time>
      </trkpt>
      <trkpt lat="46.39741" lon="5.70291">
        <ele>707.4</ele>
        <time>2014-05-01T15:07:15.323Z</time>
      </trkpt>
      <trkpt lat="46.39745" lon="5.70288">
        <ele>711.1</ele>
        <time>2014-05-01T15:07:18.342Z</time>
      </trkpt>
      <trkpt lat="46.3975" lon="5.70289">
        <ele>713</ele>
        <time>2014-05-01T15:07:21.300Z</time>
      </trkpt>
      <trkpt lat="46.39755" lon="5.70285">
        <ele>714.4</ele>
        <time>2014-05-01T15:07:24.335Z</time>
      </trkpt>
      <trkpt lat="46.3976" lon="5.70281">
        <ele>712.1</ele>
        <time>2014-05-01T15:07:27.308Z</time>
      </trkpt>
      <trkpt lat="46.39767" lon="5.70271">
        <ele>712.5</ele>
        <time>2014-05-01T15:07:30.301Z</time>
      </trkpt>
      <trkpt lat="46.39773" lon="5.70263">
        <ele>710.2</ele>
        <time>2014-05-01T15:07:33.321Z</time>
      </trkpt>
      <trkpt lat="46.39779" lon="5.70256">
        <ele>710.4</ele>
        <time>2014-05-01T15:07:36.299Z</time>
      </trkpt>
      <trkpt lat="46.39784" lon="5.7025">
        <ele>710.6</ele>
        <time>2014-05-01T15:07:39.297Z</time>
      </trkpt>
      <trkpt lat="46.39789" lon="5.70246">
        <ele>712.7</ele>
        <time>2014-05-01T15:07:42.297Z</time>
      </trkpt>
      <trkpt lat="46.39795" lon="5.70245">
        <ele>717.4</ele>
        <time>2014-05-01T15:07:45.297Z</time>
      </trkpt>
      <trkpt lat="46.39798" lon="5.70244">
        <ele>718.9</ele>
        <time>2014-05-01T15:07:48.298Z</time>
      </trkpt>
      <trkpt lat="46.39803" lon="5.70241">
        <ele>718.5</ele>
        <time>2014-05-01T15:07:51.290Z</time>
      </trkpt>
      <trkpt lat="46.39811" lon="5.70236">
        <ele>715.1</ele>
        <time>2014-05-01T15:07:54.297Z</time>
      </trkpt>
      <trkpt lat="46.39819" lon="5.7023">
        <ele>713</ele>
        <time>2014-05-01T15:07:57.298Z</time>
      </trkpt>
      <trkpt lat="46.39826" lon="5.70226">
        <ele>711.7</ele>
        <time>2014-05-01T15:08:00.299Z</time>
      </trkpt>
      <trkpt lat="46.39835" lon="5.70223">
        <ele>708.8</ele>
        <time>2014-05-01T15:08:03.298Z</time>
      </trkpt>
      <trkpt lat="46.39844" lon="5.70222">
        <ele>709.5</ele>
        <time>2014-05-01T15:08:06.300Z</time>
      </trkpt>
      <trkpt lat="46.39851" lon="5.70222">
        <ele>706.9</ele>
        <time>2014-05-01T15:08:09.299Z</time>
      </trkpt>
      <trkpt lat="46.39861" lon="5.7022">
        <ele>704.7</ele>
        <time>2014-05-01T15:08:12.297Z</time>
      </trkpt>
      <trkpt lat="46.3987" lon="5.70218">
        <ele>701.8</ele>
        <time>2014-05-01T15:08:15.297Z</time>
      </trkpt>
      <trkpt lat="46.39879" lon="5.70216">
        <ele>700.6</ele>
        <time>2014-05-01T15:08:18.299Z</time>
      </trkpt>
      <trkpt lat="46.39889" lon="5.70214">
        <ele>700.8</ele>
        <time>2014-05-01T15:08:21.298Z</time>
      </trkpt>
      <trkpt lat="46.39898" lon="5.70216">
        <ele>700.4</ele>
        <time>2014-05-01T15:08:24.297Z</time>
      </trkpt>
      <trkpt lat="46.39905" lon="5.70219">
        <ele>701.5</ele>
        <time>2014-05-01T15:08:27.296Z</time>
      </trkpt>
      <trkpt lat="46.39912" lon="5.70225">
        <ele>701.2</ele>
        <time>2014-05-01T15:08:30.296Z</time>
      </trkpt>
      <trkpt lat="46.39919" lon="5.7023">
        <ele>700.5</ele>
        <time>2014-05-01T15:08:33.297Z</time>
      </trkpt>
      <trkpt lat="46.39925" lon="5.70231">
        <ele>703.9</ele>
        <time>2014-05-01T15:08:36.297Z</time>
      </trkpt>
      <trkpt lat="46.39928" lon="5.70231">
        <ele>707.2</ele>
        <time>2014-05-01T15:08:39.297Z</time>
      </trkpt>
      <trkpt lat="46.3993" lon="5.70232">
        <ele>709.5</ele>
        <time>2014-05-01T15:08:42.298Z</time>
      </trkpt>
      <trkpt lat="46.39932" lon="5.70233">
        <ele>710.2</ele>
        <time>2014-05-01T15:08:45.299Z</time>
      </trkpt>
      <trkpt lat="46.39936" lon="5.70234">
        <ele>712.3</ele>
        <time>2014-05-01T15:08:48.297Z</time>
      </trkpt>
      <trkpt lat="46.39942" lon="5.70235">
        <ele>714.5</ele>
        <time>2014-05-01T15:08:51.318Z</time>
      </trkpt>
      <trkpt lat="46.39947" lon="5.70236">
        <ele>718.7</ele>
        <time>2014-05-01T15:08:54.297Z</time>
      </trkpt>
      <trkpt lat="46.39952" lon="5.70237">
        <ele>721.3</ele>
        <time>2014-05-01T15:08:57.358Z</time>
      </trkpt>
      <trkpt lat="46.39956" lon="5.70238">
        <ele>723.1</ele>
        <time>2014-05-01T15:09:00.344Z</time>
      </trkpt>
      <trkpt lat="46.39961" lon="5.70237">
        <ele>727.1</ele>
        <time>2014-05-01T15:09:03.298Z</time>
      </trkpt>
      <trkpt lat="46.39965" lon="5.70235">
        <ele>729.3</ele>
        <time>2014-05-01T15:09:06.298Z</time>
      </trkpt>
      <trkpt lat="46.39972" lon="5.70233">
        <ele>730.5</ele>
        <time>2014-05-01T15:09:09.297Z</time>
      </trkpt>
      <trkpt lat="46.39979" lon="5.70231">
        <ele>730</ele>
        <time>2014-05-01T15:09:12.299Z</time>
      </trkpt>
      <trkpt lat="46.39986" lon="5.70229">
        <ele>731.4</ele>
        <time>2014-05-01T15:09:15.299Z</time>
      </trkpt>
      <trkpt lat="46.39992" lon="5.70228">
        <ele>730.3</ele>
        <time>2014-05-01T15:09:18.298Z</time>
      </trkpt>
      <trkpt lat="46.39998" lon="5.70228">
        <ele>733.5</ele>
        <time>2014-05-01T15:09:21.298Z</time>
      </trkpt>
      <trkpt lat="46.40005" lon="5.70227">
        <ele>735</ele>
        <time>2014-05-01T15:09:24.299Z</time>
      </trkpt>
      <trkpt lat="46.40015" lon="5.70228">
        <ele>733</ele>
        <time>2014-05-01T15:09:27.298Z</time>
      </trkpt>
      <trkpt lat="46.40023" lon="5.70228">
        <ele>734</ele>
        <time>2014-05-01T15:09:30.299Z</time>
      </trkpt>
      <trkpt lat="46.40031" lon="5.70228">
        <ele>732.1</ele>
        <time>2014-05-01T15:09:33.297Z</time>
      </trkpt>
      <trkpt lat="46.40039" lon="5.70229">
        <ele>732</ele>
        <time>2014-05-01T15:09:36.297Z</time>
      </trkpt>
      <trkpt lat="46.40044" lon="5.70229">
        <ele>733</ele>
        <time>2014-05-01T15:09:39.297Z</time>
      </trkpt>
      <trkpt lat="46.40051" lon="5.70231">
        <ele>734.2</ele>
        <time>2014-05-01T15:09:42.298Z</time>
      </trkpt>
      <trkpt lat="46.40056" lon="5.70234">
        <ele>735.6</ele>
        <time>2014-05-01T15:09:45.297Z</time>
      </trkpt>
      <trkpt lat="46.40062" lon="5.70234">
        <ele>734.8</ele>
        <time>2014-05-01T15:09:48.298Z</time>
      </trkpt>
      <trkpt lat="46.40068" lon="5.7023">
        <ele>732.1</ele>
        <time>2014-05-01T15:09:51.298Z</time>
      </trkpt>
      <trkpt lat="46.40075" lon="5.70228">
        <ele>730.3</ele>
        <time>2014-05-01T15:09:54.298Z</time>
      </trkpt>
      <trkpt lat="46.40079" lon="5.70225">
        <ele>730.9</ele>
        <time>2014-05-01T15:09:57.297Z</time>
      </trkpt>
      <trkpt lat="46.40084" lon="5.70222">
        <ele>730.7</ele>
        <time>2014-05-01T15:10:00.298Z</time>
      </trkpt>
      <trkpt lat="46.40093" lon="5.70222">
        <ele>729</ele>
        <time>2014-05-01T15:10:03.297Z</time>
      </trkpt>
      <trkpt lat="46.40103" lon="5.70222">
        <ele>729.7</ele>
        <time>2014-05-01T15:10:06.299Z</time>
      </trkpt>
      <trkpt lat="46.4011" lon="5.7022">
        <ele>730.4</ele>
        <time>2014-05-01T15:10:09.298Z</time>
      </trkpt>
      <trkpt lat="46.40116" lon="5.7022">
        <ele>731.1</ele>
        <time>2014-05-01T15:10:12.298Z</time>
      </trkpt>
      <trkpt lat="46.40122" lon="5.70218">
        <ele>732.1</ele>
        <time>2014-05-01T15:10:15.297Z</time>
      </trkpt>
      <trkpt lat="46.40129" lon="5.70216">
        <ele>732.9</ele>
        <time>2014-05-01T15:10:18.298Z</time>
      </trkpt>
      <trkpt lat="46.40135" lon="5.70213">
        <ele>730.8</ele>
        <time>2014-05-01T15:10:21.298Z</time>
      </trkpt>
      <trkpt lat="46.40142" lon="5.70212">
        <ele>735.2</ele>
        <time>2014-05-01T15:10:24.298Z</time>
      </trkpt>
      <trkpt lat="46.4015" lon="5.70211">
        <ele>733.6</ele>
        <time>2014-05-01T15:10:27.298Z</time>
      </trkpt>
      <trkpt lat="46.40155" lon="5.70208">
        <ele>734.6</ele>
        <time>2014-05-01T15:10:30.298Z</time>
      </trkpt>
      <trkpt lat="46.40162" lon="5.70206">
        <ele>734.7</ele>
        <time>2014-05-01T15:10:33.298Z</time>
      </trkpt>
      <trkpt lat="46.40169" lon="5.70206">
        <ele>735.9</ele>
        <time>2014-05-01T15:10:36.298Z</time>
      </trkpt>
      <trkpt lat="46.40174" lon="5.70205">
        <ele>736.1</ele>
        <time>2014-05-01T15:10:39.299Z</time>
      </trkpt>
      <trkpt lat="46.4018" lon="5.70202">
        <ele>732.7</ele>
        <time>2014-05-01T15:10:42.298Z</time>
      </trkpt>
      <trkpt lat="46.40187" lon="5.70198">
        <ele>732.9</ele>
        <time>2014-05-01T15:10:45.298Z</time>
      </trkpt>
      <trkpt lat="46.40196" lon="5.70195">
        <ele>732.1</ele>
        <time>2014-05-01T15:10:48.299Z</time>
      </trkpt>
      <trkpt lat="46.40204" lon="5.70191">
        <ele>734.6</ele>
        <time>2014-05-01T15:10:51.345Z</time>
      </trkpt>
      <trkpt lat="46.40211" lon="5.70187">
        <ele>733.2</ele>
        <time>2014-05-01T15:10:54.304Z</time>
      </trkpt>
      <trkpt lat="46.40219" lon="5.70181">
        <ele>729.5</ele>
        <time>2014-05-01T15:10:57.342Z</time>
      </trkpt>
      <trkpt lat="46.40229" lon="5.70171">
        <ele>725</ele>
        <time>2014-05-01T15:11:00.351Z</time>
      </trkpt>
      <trkpt lat="46.40236" lon="5.7016">
        <ele>723.4</ele>
        <time>2014-05-01T15:11:03.312Z</time>
      </trkpt>
      <trkpt lat="46.40241" lon="5.70148">
        <ele>723.7</ele>
        <time>2014-05-01T15:11:06.311Z</time>
      </trkpt>
      <trkpt lat="46.40244" lon="5.70139">
        <ele>725</ele>
        <time>2014-05-01T15:11:09.359Z</time>
      </trkpt>
      <trkpt lat="46.40247" lon="5.7013">
        <ele>725.1</ele>
        <time>2014-05-01T15:11:12.299Z</time>
      </trkpt>
      <trkpt lat="46.40247" lon="5.70119">
        <ele>723.8</ele>
        <time>2014-05-01T15:11:15.329Z</time>
      </trkpt>
      <trkpt lat="46.40247" lon="5.70107">
        <ele>722</ele>
        <time>2014-05-01T15:11:18.355Z</time>
      </trkpt>
      <trkpt lat="46.40247" lon="5.70096">
        <ele>720.5</ele>
        <time>2014-05-01T15:11:21.335Z</time>
      </trkpt>
      <trkpt lat="46.4025" lon="5.70087">
        <ele>721.3</ele>
        <time>2014-05-01T15:11:24.301Z</time>
      </trkpt>
      <trkpt lat="46.40255" lon="5.7008">
        <ele>722.3</ele>
        <time>2014-05-01T15:11:27.328Z</time>
      </trkpt>
      <trkpt lat="46.40259" lon="5.70072">
        <ele>722.9</ele>
        <time>2014-05-01T15:11:30.322Z</time>
      </trkpt>
      <trkpt lat="46.40263" lon="5.70065">
        <ele>723.6</ele>
        <time>2014-05-01T15:11:33.298Z</time>
      </trkpt>
      <trkpt lat="46.40267" lon="5.70058">
        <ele>724.4</ele>
        <time>2014-05-01T15:11:36.305Z</time>
      </trkpt>
      <trkpt lat="46.40271" lon="5.70051">
        <ele>724.3</ele>
        <time>2014-05-01T15:11:39.299Z</time>
      </trkpt>
      <trkpt lat="46.40276" lon="5.70043">
        <ele>724.9</ele>
        <time>2014-05-01T15:11:42.298Z</time>
      </trkpt>
      <trkpt lat="46.40281" lon="5.70035">
        <ele>722.9</ele>
        <time>2014-05-01T15:11:45.299Z</time>
      </trkpt>
      <trkpt lat="46.40287" lon="5.70027">
        <ele>723.4</ele>
        <time>2014-05-01T15:11:48.297Z</time>
      </trkpt>
      <trkpt lat="46.4029" lon="5.70018">
        <ele>724.8</ele>
        <time>2014-05-01T15:11:51.298Z</time>
      </trkpt>
      <trkpt lat="46.4029" lon="5.70011">
        <ele>726.7</ele>
        <time>2014-05-01T15:11:54.301Z</time>
      </trkpt>
      <trkpt lat="46.4029" lon="5.70005">
        <ele>728</ele>
        <time>2014-05-01T15:11:57.296Z</time>
      </trkpt>
      <trkpt lat="46.40291" lon="5.69999">
        <ele>729.4</ele>
        <time>2014-05-01T15:12:00.297Z</time>
      </trkpt>
      <trkpt lat="46.40292" lon="5.69992">
        <ele>728.1</ele>
        <time>2014-05-01T15:12:03.297Z</time>
      </trkpt>
      <trkpt lat="46.40295" lon="5.69987">
        <ele>733.8</ele>
        <time>2014-05-01T15:12:06.297Z</time>
      </trkpt>
      <trkpt lat="46.40297" lon="5.69983">
        <ele>737.2</ele>
        <time>2014-05-01T15:12:09.298Z</time>
      </trkpt>
      <trkpt lat="46.40295" lon="5.6998">
        <ele>738.3</ele>
        <time>2014-05-01T15:12:12.297Z</time>
      </trkpt>
      <trkpt lat="46.40296" lon="5.69974">
        <ele>739</ele>
        <time>2014-05-01T15:12:15.299Z</time>
      </trkpt>
      <trkpt lat="46.40297" lon="5.69966">
        <ele>739.5</ele>
        <time>2014-05-01T15:12:18.297Z</time>
      </trkpt>
      <trkpt lat="46.40301" lon="5.69956">
        <ele>740.9</ele>
        <time>2014-05-01T15:12:21.297Z</time>
      </trkpt>
      <trkpt lat="46.40303" lon="5.69945">
        <ele>736.8</ele>
        <time>2014-05-01T15:12:24.298Z</time>
      </trkpt>
      <trkpt lat="46.40301" lon="5.69933">
        <ele>738.9</ele>
        <time>2014-05-01T15:12:27.298Z</time>
      </trkpt>
      <trkpt lat="46.403" lon="5.69925">
        <ele>739.6</ele>
        <time>2014-05-01T15:12:30.297Z</time>
      </trkpt>
      <trkpt lat="46.40298" lon="5.69916">
        <ele>738.1</ele>
        <time>2014-05-01T15:12:33.297Z</time>
      </trkpt>
      <trkpt lat="46.40297" lon="5.69907">
        <ele>737.4</ele>
        <time>2014-05-01T15:12:36.297Z</time>
      </trkpt>
      <trkpt lat="46.40294" lon="5.69899">
        <ele>738.4</ele>
        <time>2014-05-01T15:12:39.297Z</time>
      </trkpt>
      <trkpt lat="46.40293" lon="5.69892">
        <ele>740</ele>
        <time>2014-05-01T15:12:42.374Z</time>
      </trkpt>
      <trkpt lat="46.40291" lon="5.69883">
        <ele>738.3</ele>
        <time>2014-05-01T15:12:45.359Z</time>
      </trkpt>
      <trkpt lat="46.40288" lon="5.69872">
        <ele>736.5</ele>
        <time>2014-05-01T15:12:48.310Z</time>
      </trkpt>
      <trkpt lat="46.40285" lon="5.69861">
        <ele>735.1</ele>
        <time>2014-05-01T15:12:51.346Z</time>
      </trkpt>
      <trkpt lat="46.40283" lon="5.69851">
        <ele>734.8</ele>
        <time>2014-05-01T15:12:54.361Z</time>
      </trkpt>
      <trkpt lat="46.40282" lon="5.69841">
        <ele>734.2</ele>
        <time>2014-05-01T15:12:57.317Z</time>
      </trkpt>
      <trkpt lat="46.4028" lon="5.69833">
        <ele>735.2</ele>
        <time>2014-05-01T15:13:00.295Z</time>
      </trkpt>
      <trkpt lat="46.40274" lon="5.69829">
        <ele>734.6</ele>
        <time>2014-05-01T15:13:03.296Z</time>
      </trkpt>
      <trkpt lat="46.40268" lon="5.69824">
        <ele>732.8</ele>
        <time>2014-05-01T15:13:06.295Z</time>
      </trkpt>
      <trkpt lat="46.40263" lon="5.6982">
        <ele>732.2</ele>
        <time>2014-05-01T15:13:09.294Z</time>
      </trkpt>
      <trkpt lat="46.40257" lon="5.69819">
        <ele>735.5</ele>
        <time>2014-05-01T15:13:12.374Z</time>
      </trkpt>
      <trkpt lat="46.4025" lon="5.69822">
        <ele>734.6</ele>
        <time>2014-05-01T15:13:15.323Z</time>
      </trkpt>
      <trkpt lat="46.40245" lon="5.69816">
        <ele>735.3</ele>
        <time>2014-05-01T15:13:18.296Z</time>
      </trkpt>
      <trkpt lat="46.40244" lon="5.69806">
        <ele>734.5</ele>
        <time>2014-05-01T15:13:21.383Z</time>
      </trkpt>
      <trkpt lat="46.40244" lon="5.69797">
        <ele>734.9</ele>
        <time>2014-05-01T15:13:24.321Z</time>
      </trkpt>
      <trkpt lat="46.40243" lon="5.6979">
        <ele>735.3</ele>
        <time>2014-05-01T15:13:27.302Z</time>
      </trkpt>
      <trkpt lat="46.40243" lon="5.69788">
        <ele>740.7</ele>
        <time>2014-05-01T15:13:30.358Z</time>
      </trkpt>
      <trkpt lat="46.40242" lon="5.6979">
        <ele>743.4</ele>
        <time>2014-05-01T15:13:33.338Z</time>
      </trkpt>
      <trkpt lat="46.4024" lon="5.69789">
        <ele>745.3</ele>
        <time>2014-05-01T15:13:36.302Z</time>
      </trkpt>
      <trkpt lat="46.40238" lon="5.69785">
        <ele>746.1</ele>
        <time>2014-05-01T15:13:39.311Z</time>
      </trkpt>
      <trkpt lat="46.40236" lon="5.6978">
        <ele>747.1</ele>
        <time>2014-05-01T15:13:42.331Z</time>
      </trkpt>
      <trkpt lat="46.40233" lon="5.69775">
        <ele>749.5</ele>
        <time>2014-05-01T15:13:45.323Z</time>
      </trkpt>
      <trkpt lat="46.40231" lon="5.6977">
        <ele>751.9</ele>
        <time>2014-05-01T15:13:48.308Z</time>
      </trkpt>
      <trkpt lat="46.40227" lon="5.69766">
        <ele>755.4</ele>
        <time>2014-05-01T15:13:51.351Z</time>
      </trkpt>
      <trkpt lat="46.40225" lon="5.69762">
        <ele>758.4</ele>
        <time>2014-05-01T15:13:54.323Z</time>
      </trkpt>
      <trkpt lat="46.40223" lon="5.69758">
        <ele>762.4</ele>
        <time>2014-05-01T15:13:57.301Z</time>
      </trkpt>
      <trkpt lat="46.40221" lon="5.69754">
        <ele>766</ele>
        <time>2014-05-01T15:14:00.306Z</time>
      </trkpt>
      <trkpt lat="46.40219" lon="5.6975">
        <ele>765.1</ele>
        <time>2014-05-01T15:14:03.328Z</time>
      </trkpt>
      <trkpt lat="46.40217" lon="5.69743">
        <ele>763.5</ele>
        <time>2014-05-01T15:14:06.300Z</time>
      </trkpt>
      <trkpt lat="46.40213" lon="5.69739">
        <ele>767.2</ele>
        <time>2014-05-01T15:14:09.300Z</time>
      </trkpt>
      <trkpt lat="46.40213" lon="5.69735">
        <ele>769.8</ele>
        <time>2014-05-01T15:14:12.300Z</time>
      </trkpt>
      <trkpt lat="46.40211" lon="5.69731">
        <ele>774.1</ele>
        <time>2014-05-01T15:14:15.300Z</time>
      </trkpt>
      <trkpt lat="46.4021" lon="5.69727">
        <ele>776.2</ele>
        <time>2014-05-01T15:14:18.299Z</time>
      </trkpt>
      <trkpt lat="46.40209" lon="5.69724">
        <ele>779</ele>
        <time>2014-05-01T15:14:21.298Z</time>
      </trkpt>
      <trkpt lat="46.40208" lon="5.69722">
        <ele>780.1</ele>
        <time>2014-05-01T15:14:24.298Z</time>
      </trkpt>
      <trkpt lat="46.40204" lon="5.69719">
        <ele>780.4</ele>
        <time>2014-05-01T15:14:27.299Z</time>
      </trkpt>
      <trkpt lat="46.40201" lon="5.69717">
        <ele>781.1</ele>
        <time>2014-05-01T15:14:30.299Z</time>
      </trkpt>
      <trkpt lat="46.402" lon="5.69715">
        <ele>785.2</ele>
        <time>2014-05-01T15:14:33.297Z</time>
      </trkpt>
      <trkpt lat="46.40198" lon="5.69713">
        <ele>786.6</ele>
        <time>2014-05-01T15:14:36.296Z</time>
      </trkpt>
      <trkpt lat="46.40194" lon="5.69709">
        <ele>787.1</ele>
        <time>2014-05-01T15:14:39.299Z</time>
      </trkpt>
      <trkpt lat="46.4019" lon="5.69703">
        <ele>787.9</ele>
        <time>2014-05-01T15:14:42.297Z</time>
      </trkpt>
      <trkpt lat="46.40187" lon="5.69698">
        <ele>790.4</ele>
        <time>2014-05-01T15:14:45.298Z</time>
      </trkpt>
      <trkpt lat="46.40185" lon="5.69694">
        <ele>792.9</ele>
        <time>2014-05-01T15:14:48.340Z</time>
      </trkpt>
      <trkpt lat="46.40184" lon="5.69691">
        <ele>794.2</ele>
        <time>2014-05-01T15:14:51.338Z</time>
      </trkpt>
      <trkpt lat="46.40183" lon="5.69686">
        <ele>796.1</ele>
        <time>2014-05-01T15:14:54.300Z</time>
      </trkpt>
      <trkpt lat="46.40181" lon="5.6968">
        <ele>796.9</ele>
        <time>2014-05-01T15:14:57.334Z</time>
      </trkpt>
      <trkpt lat="46.40179" lon="5.69675">
        <ele>800.9</ele>
        <time>2014-05-01T15:15:00.332Z</time>
      </trkpt>
      <trkpt lat="46.40177" lon="5.69669">
        <ele>801.9</ele>
        <time>2014-05-01T15:15:03.308Z</time>
      </trkpt>
      <trkpt lat="46.40173" lon="5.69665">
        <ele>798.7</ele>
        <time>2014-05-01T15:15:06.389Z</time>
      </trkpt>
      <trkpt lat="46.40168" lon="5.69661">
        <ele>799.9</ele>
        <time>2014-05-01T15:15:09.372Z</time>
      </trkpt>
      <trkpt lat="46.40164" lon="5.69661">
        <ele>798.9</ele>
        <time>2014-05-01T15:15:12.299Z</time>
      </trkpt>
      <trkpt lat="46.40163" lon="5.69661">
        <ele>798.1</ele>
        <time>2014-05-01T15:15:15.368Z</time>
      </trkpt>
      <trkpt lat="46.4016" lon="5.69661">
        <ele>799.2</ele>
        <time>2014-05-01T15:15:18.297Z</time>
      </trkpt>
      <trkpt lat="46.40158" lon="5.69662">
        <ele>803.8</ele>
        <time>2014-05-01T15:15:21.415Z</time>
      </trkpt>
      <trkpt lat="46.40156" lon="5.69661">
        <ele>807</ele>
        <time>2014-05-01T15:15:24.328Z</time>
      </trkpt>
      <trkpt lat="46.40152" lon="5.69663">
        <ele>808.3</ele>
        <time>2014-05-01T15:15:27.311Z</time>
      </trkpt>
      <trkpt lat="46.40146" lon="5.69666">
        <ele>809.4</ele>
        <time>2014-05-01T15:15:30.316Z</time>
      </trkpt>
      <trkpt lat="46.40139" lon="5.69669">
        <ele>811</ele>
        <time>2014-05-01T15:15:33.297Z</time>
      </trkpt>
      <trkpt lat="46.40133" lon="5.69673">
        <ele>808.8</ele>
        <time>2014-05-01T15:15:36.298Z</time>
      </trkpt>
      <trkpt lat="46.40127" lon="5.69678">
        <ele>806.2</ele>
        <time>2014-05-01T15:15:39.300Z</time>
      </trkpt>
      <trkpt lat="46.40121" lon="5.69684">
        <ele>804.8</ele>
        <time>2014-05-01T15:15:42.300Z</time>
      </trkpt>
      <trkpt lat="46.40115" lon="5.69687">
        <ele>805.1</ele>
        <time>2014-05-01T15:15:45.299Z</time>
      </trkpt>
      <trkpt lat="46.40108" lon="5.69689">
        <ele>804.6</ele>
        <time>2014-05-01T15:15:48.297Z</time>
      </trkpt>
      <trkpt lat="46.40101" lon="5.6969">
        <ele>802.7</ele>
        <time>2014-05-01T15:15:51.298Z</time>
      </trkpt>
      <trkpt lat="46.40095" lon="5.69689">
        <ele>805.6</ele>
        <time>2014-05-01T15:15:54.297Z</time>
      </trkpt>
      <trkpt lat="46.40088" lon="5.69689">
        <ele>803.5</ele>
        <time>2014-05-01T15:15:57.296Z</time>
      </trkpt>
      <trkpt lat="46.4008" lon="5.6969">
        <ele>804.8</ele>
        <time>2014-05-01T15:16:00.298Z</time>
      </trkpt>
      <trkpt lat="46.40074" lon="5.69693">
        <ele>803.5</ele>
        <time>2014-05-01T15:16:03.297Z</time>
      </trkpt>
      <trkpt lat="46.40069" lon="5.697">
        <ele>801.8</ele>
        <time>2014-05-01T15:16:06.297Z</time>
      </trkpt>
      <trkpt lat="46.40065" lon="5.69704">
        <ele>801.2</ele>
        <time>2014-05-01T15:16:09.299Z</time>
      </trkpt>
      <trkpt lat="46.40059" lon="5.69709">
        <ele>800.8</ele>
        <time>2014-05-01T15:16:12.299Z</time>
      </trkpt>
      <trkpt lat="46.40054" lon="5.69713">
        <ele>800.4</ele>
        <time>2014-05-01T15:16:15.297Z</time>
      </trkpt>
      <trkpt lat="46.4005" lon="5.69718">
        <ele>799.8</ele>
        <time>2014-05-01T15:16:18.298Z</time>
      </trkpt>
      <trkpt lat="46.40048" lon="5.69721">
        <ele>799.8</ele>
        <time>2014-05-01T15:16:21.298Z</time>
      </trkpt>
      <trkpt lat="46.40046" lon="5.69722">
        <ele>798.1</ele>
        <time>2014-05-01T15:16:24.300Z</time>
      </trkpt>
      <trkpt lat="46.40041" lon="5.69723">
        <ele>796.7</ele>
        <time>2014-05-01T15:16:27.298Z</time>
      </trkpt>
      <trkpt lat="46.40033" lon="5.69725">
        <ele>795.9</ele>
        <time>2014-05-01T15:16:30.298Z</time>
      </trkpt>
      <trkpt lat="46.40027" lon="5.69725">
        <ele>794.7</ele>
        <time>2014-05-01T15:16:33.296Z</time>
      </trkpt>
      <trkpt lat="46.40022" lon="5.69725">
        <ele>794.4</ele>
        <time>2014-05-01T15:16:36.298Z</time>
      </trkpt>
      <trkpt lat="46.40017" lon="5.69724">
        <ele>793.9</ele>
        <time>2014-05-01T15:16:39.296Z</time>
      </trkpt>
      <trkpt lat="46.4001" lon="5.69724">
        <ele>792.2</ele>
        <time>2014-05-01T15:16:42.296Z</time>
      </trkpt>
      <trkpt lat="46.40002" lon="5.69724">
        <ele>792.5</ele>
        <time>2014-05-01T15:16:45.297Z</time>
      </trkpt>
      <trkpt lat="46.39996" lon="5.69722">
        <ele>790.8</ele>
        <time>2014-05-01T15:16:48.297Z</time>
      </trkpt>
      <trkpt lat="46.3999" lon="5.69719">
        <ele>793.4</ele>
        <time>2014-05-01T15:16:51.333Z</time>
      </trkpt>
      <trkpt lat="46.39986" lon="5.69715">
        <ele>794.3</ele>
        <time>2014-05-01T15:16:54.353Z</time>
      </trkpt>
      <trkpt lat="46.39982" lon="5.69712">
        <ele>792.9</ele>
        <time>2014-05-01T15:16:57.310Z</time>
      </trkpt>
      <trkpt lat="46.39978" lon="5.69705">
        <ele>792.2</ele>
        <time>2014-05-01T15:17:00.297Z</time>
      </trkpt>
      <trkpt lat="46.39974" lon="5.69695">
        <ele>790.5</ele>
        <time>2014-05-01T15:17:03.297Z</time>
      </trkpt>
      <trkpt lat="46.39971" lon="5.69691">
        <ele>789.7</ele>
        <time>2014-05-01T15:17:06.297Z</time>
      </trkpt>
      <trkpt lat="46.39967" lon="5.6969">
        <ele>786.8</ele>
        <time>2014-05-01T15:17:09.296Z</time>
      </trkpt>
      <trkpt lat="46.39959" lon="5.69686">
        <ele>788.2</ele>
        <time>2014-05-01T15:17:12.295Z</time>
      </trkpt>
      <trkpt lat="46.39951" lon="5.69679">
        <ele>792.6</ele>
        <time>2014-05-01T15:17:15.297Z</time>
      </trkpt>
      <trkpt lat="46.39943" lon="5.69666">
        <ele>790.7</ele>
        <time>2014-05-01T15:17:18.297Z</time>
      </trkpt>
      <trkpt lat="46.39936" lon="5.69654">
        <ele>794.3</ele>
        <time>2014-05-01T15:17:21.297Z</time>
      </trkpt>
      <trkpt lat="46.39929" lon="5.6965">
        <ele>796.4</ele>
        <time>2014-05-01T15:17:24.297Z</time>
      </trkpt>
      <trkpt lat="46.39925" lon="5.69648">
        <ele>797.5</ele>
        <time>2014-05-01T15:17:27.297Z</time>
      </trkpt>
      <trkpt lat="46.39921" lon="5.69646">
        <ele>796.6</ele>
        <time>2014-05-01T15:17:30.297Z</time>
      </trkpt>
      <trkpt lat="46.39915" lon="5.69643">
        <ele>800.9</ele>
        <time>2014-05-01T15:17:33.297Z</time>
      </trkpt>
      <trkpt lat="46.39909" lon="5.69638">
        <ele>804.7</ele>
        <time>2014-05-01T15:17:36.297Z</time>
      </trkpt>
      <trkpt lat="46.39904" lon="5.69634">
        <ele>805.4</ele>
        <time>2014-05-01T15:17:39.305Z</time>
      </trkpt>
      <trkpt lat="46.39899" lon="5.6963">
        <ele>805.5</ele>
        <time>2014-05-01T15:17:42.306Z</time>
      </trkpt>
      <trkpt lat="46.39894" lon="5.69625">
        <ele>801.3</ele>
        <time>2014-05-01T15:17:45.397Z</time>
      </trkpt>
      <trkpt lat="46.39888" lon="5.69622">
        <ele>795.6</ele>
        <time>2014-05-01T15:17:48.302Z</time>
      </trkpt>
      <trkpt lat="46.3988" lon="5.6962">
        <ele>798.4</ele>
        <time>2014-05-01T15:17:51.304Z</time>
      </trkpt>
      <trkpt lat="46.39872" lon="5.69619">
        <ele>796.6</ele>
        <time>2014-05-01T15:17:54.386Z</time>
      </trkpt>
      <trkpt lat="46.39864" lon="5.6962">
        <ele>796.1</ele>
        <time>2014-05-01T15:17:57.451Z</time>
      </trkpt>
      <trkpt lat="46.39858" lon="5.6962">
        <ele>796</ele>
        <time>2014-05-01T15:18:00.303Z</time>
      </trkpt>
      <trkpt lat="46.39848" lon="5.69621">
        <ele>797.2</ele>
        <time>2014-05-01T15:18:03.294Z</time>
      </trkpt>
      <trkpt lat="46.39845" lon="5.69623">
        <ele>797.5</ele>
        <time>2014-05-01T15:18:06.292Z</time>
      </trkpt>
      <trkpt lat="46.39841" lon="5.69627">
        <ele>800</ele>
        <time>2014-05-01T15:18:09.287Z</time>
      </trkpt>
      <trkpt lat="46.39837" lon="5.69634">
        <ele>800.2</ele>
        <time>2014-05-01T15:18:12.296Z</time>
      </trkpt>
      <trkpt lat="46.39831" lon="5.6964">
        <ele>800.6</ele>
        <time>2014-05-01T15:18:15.323Z</time>
      </trkpt>
      <trkpt lat="46.39822" lon="5.69648">
        <ele>809.1</ele>
        <time>2014-05-01T15:18:18.321Z</time>
      </trkpt>
      <trkpt lat="46.39815" lon="5.69653">
        <ele>808.5</ele>
        <time>2014-05-01T15:18:21.298Z</time>
      </trkpt>
      <trkpt lat="46.39811" lon="5.69657">
        <ele>808.4</ele>
        <time>2014-05-01T15:18:24.295Z</time>
      </trkpt>
      <trkpt lat="46.39806" lon="5.69661">
        <ele>807.6</ele>
        <time>2014-05-01T15:18:27.296Z</time>
      </trkpt>
      <trkpt lat="46.39799" lon="5.69666">
        <ele>808.4</ele>
        <time>2014-05-01T15:18:30.297Z</time>
      </trkpt>
      <trkpt lat="46.3979" lon="5.69669">
        <ele>807.3</ele>
        <time>2014-05-01T15:18:33.302Z</time>
      </trkpt>
      <trkpt lat="46.39784" lon="5.69673">
        <ele>806.6</ele>
        <time>2014-05-01T15:18:36.303Z</time>
      </trkpt>
      <trkpt lat="46.39778" lon="5.69679">
        <ele>809.1</ele>
        <time>2014-05-01T15:18:39.298Z</time>
      </trkpt>
      <trkpt lat="46.39774" lon="5.69688">
        <ele>811.8</ele>
        <time>2014-05-01T15:18:42.300Z</time>
      </trkpt>
      <trkpt lat="46.3977" lon="5.69697">
        <ele>812</ele>
        <time>2014-05-01T15:18:45.296Z</time>
      </trkpt>
      <trkpt lat="46.39767" lon="5.69705">
        <ele>809.5</ele>
        <time>2014-05-01T15:18:48.304Z</time>
      </trkpt>
      <trkpt lat="46.39764" lon="5.69713">
        <ele>809.6</ele>
        <time>2014-05-01T15:18:51.312Z</time>
      </trkpt>
      <trkpt lat="46.3976" lon="5.69721">
        <ele>812.1</ele>
        <time>2014-05-01T15:18:54.287Z</time>
      </trkpt>
      <trkpt lat="46.39758" lon="5.6973">
        <ele>810.4</ele>
        <time>2014-05-01T15:18:57.335Z</time>
      </trkpt>
      <trkpt lat="46.39753" lon="5.69738">
        <ele>815.2</ele>
        <time>2014-05-01T15:19:00.302Z</time>
      </trkpt>
      <trkpt lat="46.39748" lon="5.69743">
        <ele>814.9</ele>
        <time>2014-05-01T15:19:03.310Z</time>
      </trkpt>
      <trkpt lat="46.39745" lon="5.69749">
        <ele>813.1</ele>
        <time>2014-05-01T15:19:06.298Z</time>
      </trkpt>
      <trkpt lat="46.39739" lon="5.69755">
        <ele>809.7</ele>
        <time>2014-05-01T15:19:09.297Z</time>
      </trkpt>
      <trkpt lat="46.39733" lon="5.69762">
        <ele>804.9</ele>
        <time>2014-05-01T15:19:12.352Z</time>
      </trkpt>
      <trkpt lat="46.39728" lon="5.6977">
        <ele>802.7</ele>
        <time>2014-05-01T15:19:15.298Z</time>
      </trkpt>
      <trkpt lat="46.39723" lon="5.69778">
        <ele>804.3</ele>
        <time>2014-05-01T15:19:18.298Z</time>
      </trkpt>
      <trkpt lat="46.39718" lon="5.69786">
        <ele>803.9</ele>
        <time>2014-05-01T15:19:21.312Z</time>
      </trkpt>
      <trkpt lat="46.3971" lon="5.69794">
        <ele>801.2</ele>
        <time>2014-05-01T15:19:24.298Z</time>
      </trkpt>
      <trkpt lat="46.39703" lon="5.69802">
        <ele>802.1</ele>
        <time>2014-05-01T15:19:27.296Z</time>
      </trkpt>
      <trkpt lat="46.397" lon="5.6981">
        <ele>809.2</ele>
        <time>2014-05-01T15:19:30.300Z</time>
      </trkpt>
      <trkpt lat="46.39698" lon="5.69819">
        <ele>806.3</ele>
        <time>2014-05-01T15:19:33.297Z</time>
      </trkpt>
      <trkpt lat="46.39696" lon="5.69827">
        <ele>804.6</ele>
        <time>2014-05-01T15:19:36.298Z</time>
      </trkpt>
      <trkpt lat="46.39695" lon="5.69834">
        <ele>801.5</ele>
        <time>2014-05-01T15:19:39.298Z</time>
      </trkpt>
      <trkpt lat="46.39696" lon="5.69839">
        <ele>799.5</ele>
        <time>2014-05-01T15:19:42.299Z</time>
      </trkpt>
      <trkpt lat="46.39694" lon="5.69847">
        <ele>797</ele>
        <time>2014-05-01T15:19:45.303Z</time>
      </trkpt>
      <trkpt lat="46.39693" lon="5.69851">
        <ele>796.4</ele>
        <time>2014-05-01T15:19:48.321Z</time>
      </trkpt>
      <trkpt lat="46.39692" lon="5.69854">
        <ele>797.1</ele>
        <time>2014-05-01T15:19:51.298Z</time>
      </trkpt>
      <trkpt lat="46.39691" lon="5.69855">
        <ele>797.7</ele>
        <time>2014-05-01T15:19:54.298Z</time>
      </trkpt>
      <trkpt lat="46.39691" lon="5.69856">
        <ele>800.3</ele>
        <time>2014-05-01T15:19:57.307Z</time>
      </trkpt>
      <trkpt lat="46.39707" lon="5.69887">
        <ele>779.7</ele>
        <time>2014-05-01T15:20:00.298Z</time>
      </trkpt>
      <trkpt lat="46.39697" lon="5.69887">
        <ele>772.1</ele>
        <time>2014-05-01T15:20:03.300Z</time>
      </trkpt>
      <trkpt lat="46.39692" lon="5.69885">
        <ele>768.8</ele>
        <time>2014-05-01T15:20:06.302Z</time>
      </trkpt>
      <trkpt lat="46.39683" lon="5.69889">
        <ele>765.5</ele>
        <time>2014-05-01T15:20:09.437Z</time>
      </trkpt>
      <trkpt lat="46.39676" lon="5.69893">
        <ele>763.9</ele>
        <time>2014-05-01T15:20:12.331Z</time>
      </trkpt>
      <trkpt lat="46.39674" lon="5.69894">
        <ele>763.6</ele>
        <time>2014-05-01T15:20:15.299Z</time>
      </trkpt>
      <trkpt lat="46.39672" lon="5.69895">
        <ele>763.6</ele>
        <time>2014-05-01T15:20:18.412Z</time>
      </trkpt>
      <trkpt lat="46.39671" lon="5.69896">
        <ele>764.7</ele>
        <time>2014-05-01T15:20:21.319Z</time>
      </trkpt>
      <trkpt lat="46.39669" lon="5.69896">
        <ele>766.6</ele>
        <time>2014-05-01T15:20:24.301Z</time>
      </trkpt>
      <trkpt lat="46.39666" lon="5.69895">
        <ele>767.2</ele>
        <time>2014-05-01T15:20:27.357Z</time>
      </trkpt>
      <trkpt lat="46.39665" lon="5.69894">
        <ele>770.1</ele>
        <time>2014-05-01T15:20:30.345Z</time>
      </trkpt>
      <trkpt lat="46.39663" lon="5.69893">
        <ele>771.2</ele>
        <time>2014-05-01T15:20:33.298Z</time>
      </trkpt>
      <trkpt lat="46.39661" lon="5.69892">
        <ele>771.2</ele>
        <time>2014-05-01T15:20:36.308Z</time>
      </trkpt>
      <trkpt lat="46.39659" lon="5.69889">
        <ele>770.6</ele>
        <time>2014-05-01T15:20:39.298Z</time>
      </trkpt>
      <trkpt lat="46.39657" lon="5.69887">
        <ele>772.4</ele>
        <time>2014-05-01T15:20:42.298Z</time>
      </trkpt>
      <trkpt lat="46.39655" lon="5.69886">
        <ele>773.3</ele>
        <time>2014-05-01T15:20:45.300Z</time>
      </trkpt>
      <trkpt lat="46.39651" lon="5.69886">
        <ele>773.3</ele>
        <time>2014-05-01T15:20:48.298Z</time>
      </trkpt>
      <trkpt lat="46.39647" lon="5.69881">
        <ele>771.2</ele>
        <time>2014-05-01T15:20:51.298Z</time>
      </trkpt>
      <trkpt lat="46.39642" lon="5.69876">
        <ele>773</ele>
        <time>2014-05-01T15:20:54.296Z</time>
      </trkpt>
      <trkpt lat="46.39636" lon="5.69871">
        <ele>776.1</ele>
        <time>2014-05-01T15:20:57.298Z</time>
      </trkpt>
      <trkpt lat="46.39631" lon="5.69869">
        <ele>777.4</ele>
        <time>2014-05-01T15:21:00.380Z</time>
      </trkpt>
      <trkpt lat="46.39627" lon="5.69866">
        <ele>781.1</ele>
        <time>2014-05-01T15:21:03.308Z</time>
      </trkpt>
      <trkpt lat="46.39626" lon="5.69864">
        <ele>781.2</ele>
        <time>2014-05-01T15:21:06.299Z</time>
      </trkpt>
      <trkpt lat="46.39623" lon="5.69863">
        <ele>781.4</ele>
        <time>2014-05-01T15:21:09.298Z</time>
      </trkpt>
      <trkpt lat="46.39622" lon="5.69862">
        <ele>783.6</ele>
        <time>2014-05-01T15:21:12.299Z</time>
      </trkpt>
      <trkpt lat="46.3962" lon="5.69862">
        <ele>784.1</ele>
        <time>2014-05-01T15:21:15.298Z</time>
      </trkpt>
      <trkpt lat="46.39618" lon="5.69861">
        <ele>784.6</ele>
        <time>2014-05-01T15:21:18.316Z</time>
      </trkpt>
      <trkpt lat="46.39614" lon="5.69862">
        <ele>787.9</ele>
        <time>2014-05-01T15:21:21.316Z</time>
      </trkpt>
      <trkpt lat="46.39612" lon="5.69864">
        <ele>789.5</ele>
        <time>2014-05-01T15:21:24.299Z</time>
      </trkpt>
      <trkpt lat="46.39611" lon="5.69866">
        <ele>791</ele>
        <time>2014-05-01T15:21:27.297Z</time>
      </trkpt>
      <trkpt lat="46.3961" lon="5.69868">
        <ele>792.2</ele>
        <time>2014-05-01T15:21:30.322Z</time>
      </trkpt>
      <trkpt lat="46.39608" lon="5.69868">
        <ele>791.7</ele>
        <time>2014-05-01T15:21:33.347Z</time>
      </trkpt>
      <trkpt lat="46.39606" lon="5.69869">
        <ele>794.2</ele>
        <time>2014-05-01T15:21:36.304Z</time>
      </trkpt>
      <trkpt lat="46.39604" lon="5.69869">
        <ele>796.4</ele>
        <time>2014-05-01T15:21:39.300Z</time>
      </trkpt>
      <trkpt lat="46.39601" lon="5.6987">
        <ele>796</ele>
        <time>2014-05-01T15:21:42.391Z</time>
      </trkpt>
      <trkpt lat="46.396" lon="5.69871">
        <ele>796.1</ele>
        <time>2014-05-01T15:21:45.317Z</time>
      </trkpt>
      <trkpt lat="46.39599" lon="5.69872">
        <ele>795.8</ele>
        <time>2014-05-01T15:21:48.338Z</time>
      </trkpt>
      <trkpt lat="46.39599" lon="5.69874">
        <ele>797.4</ele>
        <time>2014-05-01T15:21:51.315Z</time>
      </trkpt>
      <trkpt lat="46.39597" lon="5.69877">
        <ele>801.6</ele>
        <time>2014-05-01T15:21:54.333Z</time>
      </trkpt>
      <trkpt lat="46.39594" lon="5.6988">
        <ele>799</ele>
        <time>2014-05-01T15:21:57.297Z</time>
      </trkpt>
      <trkpt lat="46.39592" lon="5.69884">
        <ele>801.7</ele>
        <time>2014-05-01T15:22:00.297Z</time>
      </trkpt>
      <trkpt lat="46.3959" lon="5.69888">
        <ele>802.9</ele>
        <time>2014-05-01T15:22:03.297Z</time>
      </trkpt>
      <trkpt lat="46.39587" lon="5.69888">
        <ele>803.8</ele>
        <time>2014-05-01T15:22:06.301Z</time>
      </trkpt>
      <trkpt lat="46.39583" lon="5.69888">
        <ele>802.5</ele>
        <time>2014-05-01T15:22:09.398Z</time>
      </trkpt>
      <trkpt lat="46.39578" lon="5.69889">
        <ele>803.6</ele>
        <time>2014-05-01T15:22:12.304Z</time>
      </trkpt>
      <trkpt lat="46.39577" lon="5.6989">
        <ele>805.9</ele>
        <time>2014-05-01T15:22:15.311Z</time>
      </trkpt>
      <trkpt lat="46.39576" lon="5.69892">
        <ele>805.2</ele>
        <time>2014-05-01T15:22:18.301Z</time>
      </trkpt>
      <trkpt lat="46.39574" lon="5.69895">
        <ele>806.2</ele>
        <time>2014-05-01T15:22:21.298Z</time>
      </trkpt>
      <trkpt lat="46.39571" lon="5.69898">
        <ele>805.1</ele>
        <time>2014-05-01T15:22:24.304Z</time>
      </trkpt>
      <trkpt lat="46.39568" lon="5.69902">
        <ele>805.6</ele>
        <time>2014-05-01T15:22:27.298Z</time>
      </trkpt>
      <trkpt lat="46.39562" lon="5.69907">
        <ele>805.1</ele>
        <time>2014-05-01T15:22:30.298Z</time>
      </trkpt>
      <trkpt lat="46.39557" lon="5.69911">
        <ele>805.1</ele>
        <time>2014-05-01T15:22:33.298Z</time>
      </trkpt>
      <trkpt lat="46.39548" lon="5.69918">
        <ele>799.9</ele>
        <time>2014-05-01T15:22:36.297Z</time>
      </trkpt>
      <trkpt lat="46.39537" lon="5.69929">
        <ele>795.6</ele>
        <time>2014-05-01T15:22:39.298Z</time>
      </trkpt>
      <trkpt lat="46.3953" lon="5.69938">
        <ele>794.5</ele>
        <time>2014-05-01T15:22:42.304Z</time>
      </trkpt>
      <trkpt lat="46.39522" lon="5.69949">
        <ele>793.7</ele>
        <time>2014-05-01T15:22:45.321Z</time>
      </trkpt>
      <trkpt lat="46.3952" lon="5.69952">
        <ele>793.5</ele>
        <time>2014-05-01T15:22:48.310Z</time>
      </trkpt>
      <trkpt lat="46.39519" lon="5.69954">
        <ele>793.5</ele>
        <time>2014-05-01T15:22:51.304Z</time>
      </trkpt>
      <trkpt lat="46.39518" lon="5.69955">
        <ele>793.2</ele>
        <time>2014-05-01T15:22:54.297Z</time>
      </trkpt>
      <trkpt lat="46.39518" lon="5.69955">
        <ele>793.1</ele>
        <time>2014-05-01T15:22:57.297Z</time>
      </trkpt>
      <trkpt lat="46.39518" lon="5.69955">
        <ele>795.2</ele>
        <time>2014-05-01T15:23:00.369Z</time>
      </trkpt>
      <trkpt lat="46.39517" lon="5.69953">
        <ele>793.8</ele>
        <time>2014-05-01T15:23:03.304Z</time>
      </trkpt>
      <trkpt lat="46.39514" lon="5.69952">
        <ele>792.4</ele>
        <time>2014-05-01T15:23:06.299Z</time>
      </trkpt>
      <trkpt lat="46.39511" lon="5.69953">
        <ele>796.3</ele>
        <time>2014-05-01T15:23:09.303Z</time>
      </trkpt>
      <trkpt lat="46.39509" lon="5.69957">
        <ele>794.7</ele>
        <time>2014-05-01T15:23:12.299Z</time>
      </trkpt>
      <trkpt lat="46.39507" lon="5.69961">
        <ele>795.7</ele>
        <time>2014-05-01T15:23:15.298Z</time>
      </trkpt>
      <trkpt lat="46.39506" lon="5.69962">
        <ele>795.7</ele>
        <time>2014-05-01T15:23:18.299Z</time>
      </trkpt>
      <trkpt lat="46.39505" lon="5.69964">
        <ele>794.8</ele>
        <time>2014-05-01T15:23:21.299Z</time>
      </trkpt>
      <trkpt lat="46.39503" lon="5.69965">
        <ele>793.9</ele>
        <time>2014-05-01T15:23:24.300Z</time>
      </trkpt>
      <trkpt lat="46.39502" lon="5.69965">
        <ele>793.9</ele>
        <time>2014-05-01T15:23:27.297Z</time>
      </trkpt>
      <trkpt lat="46.39494" lon="5.6997">
        <ele>795.7</ele>
        <time>2014-05-01T15:23:30.307Z</time>
      </trkpt>
      <trkpt lat="46.39481" lon="5.69969">
        <ele>792.6</ele>
        <time>2014-05-01T15:23:33.331Z</time>
      </trkpt>
      <trkpt lat="46.39471" lon="5.69967">
        <ele>790.7</ele>
        <time>2014-05-01T15:23:36.303Z</time>
      </trkpt>
      <trkpt lat="46.39464" lon="5.69968">
        <ele>791.1</ele>
        <time>2014-05-01T15:23:39.302Z</time>
      </trkpt>
      <trkpt lat="46.39461" lon="5.69969">
        <ele>791.5</ele>
        <time>2014-05-01T15:23:42.297Z</time>
      </trkpt>
      <trkpt lat="46.39453" lon="5.69971">
        <ele>791.7</ele>
        <time>2014-05-01T15:23:45.299Z</time>
      </trkpt>
      <trkpt lat="46.39444" lon="5.6997">
        <ele>792.2</ele>
        <time>2014-05-01T15:23:48.297Z</time>
      </trkpt>
      <trkpt lat="46.39432" lon="5.69969">
        <ele>790.6</ele>
        <time>2014-05-01T15:23:51.298Z</time>
      </trkpt>
      <trkpt lat="46.39425" lon="5.6997">
        <ele>792.9</ele>
        <time>2014-05-01T15:23:54.298Z</time>
      </trkpt>
      <trkpt lat="46.39421" lon="5.69968">
        <ele>794.6</ele>
        <time>2014-05-01T15:23:57.298Z</time>
      </trkpt>
      <trkpt lat="46.3942" lon="5.69963">
        <ele>797.8</ele>
        <time>2014-05-01T15:24:00.298Z</time>
      </trkpt>
      <trkpt lat="46.39415" lon="5.69959">
        <ele>796.4</ele>
        <time>2014-05-01T15:24:03.298Z</time>
      </trkpt>
      <trkpt lat="46.39411" lon="5.69955">
        <ele>794.9</ele>
        <time>2014-05-01T15:24:06.445Z</time>
      </trkpt>
      <trkpt lat="46.39408" lon="5.69951">
        <ele>793.6</ele>
        <time>2014-05-01T15:24:09.345Z</time>
      </trkpt>
      <trkpt lat="46.39405" lon="5.69944">
        <ele>789.1</ele>
        <time>2014-05-01T15:24:12.418Z</time>
      </trkpt>
      <trkpt lat="46.39403" lon="5.69936">
        <ele>794.1</ele>
        <time>2014-05-01T15:24:15.396Z</time>
      </trkpt>
      <trkpt lat="46.394" lon="5.69929">
        <ele>789.6</ele>
        <time>2014-05-01T15:24:18.330Z</time>
      </trkpt>
      <trkpt lat="46.39396" lon="5.69923">
        <ele>788.4</ele>
        <time>2014-05-01T15:24:21.408Z</time>
      </trkpt>
      <trkpt lat="46.39393" lon="5.6992">
        <ele>787.5</ele>
        <time>2014-05-01T15:24:24.299Z</time>
      </trkpt>
      <trkpt lat="46.39389" lon="5.69916">
        <ele>785.8</ele>
        <time>2014-05-01T15:24:27.443Z</time>
      </trkpt>
      <trkpt lat="46.39386" lon="5.6991">
        <ele>782.7</ele>
        <time>2014-05-01T15:24:30.307Z</time>
      </trkpt>
      <trkpt lat="46.39384" lon="5.69906">
        <ele>781.8</ele>
        <time>2014-05-01T15:24:33.587Z</time>
      </trkpt>
      <trkpt lat="46.39382" lon="5.69905">
        <ele>782.9</ele>
        <time>2014-05-01T15:24:36.336Z</time>
      </trkpt>
      <trkpt lat="46.39382" lon="5.69904">
        <ele>786.1</ele>
        <time>2014-05-01T15:24:39.495Z</time>
      </trkpt>
      <trkpt lat="46.39383" lon="5.69897">
        <ele>786.7</ele>
        <time>2014-05-01T15:24:42.353Z</time>
      </trkpt>
      <trkpt lat="46.39385" lon="5.69895">
        <ele>795.5</ele>
        <time>2014-05-01T15:24:45.379Z</time>
      </trkpt>
      <trkpt lat="46.39388" lon="5.69893">
        <ele>797.5</ele>
        <time>2014-05-01T15:24:48.403Z</time>
      </trkpt>
      <trkpt lat="46.3939" lon="5.69888">
        <ele>798.6</ele>
        <time>2014-05-01T15:24:51.308Z</time>
      </trkpt>
      <trkpt lat="46.3939" lon="5.69882">
        <ele>799.4</ele>
        <time>2014-05-01T15:24:54.391Z</time>
      </trkpt>
      <trkpt lat="46.39389" lon="5.69873">
        <ele>799.9</ele>
        <time>2014-05-01T15:24:57.300Z</time>
      </trkpt>
      <trkpt lat="46.39386" lon="5.69863">
        <ele>798.5</ele>
        <time>2014-05-01T15:25:00.418Z</time>
      </trkpt>
      <trkpt lat="46.3938" lon="5.69853">
        <ele>793.7</ele>
        <time>2014-05-01T15:25:03.309Z</time>
      </trkpt>
      <trkpt lat="46.39375" lon="5.69842">
        <ele>794.7</ele>
        <time>2014-05-01T15:25:06.523Z</time>
      </trkpt>
      <trkpt lat="46.39371" lon="5.69831">
        <ele>792.3</ele>
        <time>2014-05-01T15:25:09.334Z</time>
      </trkpt>
      <trkpt lat="46.39368" lon="5.69823">
        <ele>790.4</ele>
        <time>2014-05-01T15:25:12.449Z</time>
      </trkpt>
      <trkpt lat="46.39365" lon="5.69817">
        <ele>788.7</ele>
        <time>2014-05-01T15:25:15.386Z</time>
      </trkpt>
      <trkpt lat="46.3936" lon="5.69812">
        <ele>788.1</ele>
        <time>2014-05-01T15:25:18.340Z</time>
      </trkpt>
      <trkpt lat="46.39357" lon="5.69808">
        <ele>784.5</ele>
        <time>2014-05-01T15:25:21.422Z</time>
      </trkpt>
      <trkpt lat="46.39355" lon="5.69805">
        <ele>785.4</ele>
        <time>2014-05-01T15:25:24.299Z</time>
      </trkpt>
      <trkpt lat="46.39353" lon="5.69803">
        <ele>789.6</ele>
        <time>2014-05-01T15:25:27.357Z</time>
      </trkpt>
      <trkpt lat="46.39351" lon="5.698">
        <ele>791.7</ele>
        <time>2014-05-01T15:25:30.305Z</time>
      </trkpt>
      <trkpt lat="46.39348" lon="5.69797">
        <ele>794.6</ele>
        <time>2014-05-01T15:25:33.449Z</time>
      </trkpt>
      <trkpt lat="46.39344" lon="5.69792">
        <ele>792.8</ele>
        <time>2014-05-01T15:25:36.314Z</time>
      </trkpt>
      <trkpt lat="46.39339" lon="5.69786">
        <ele>791.8</ele>
        <time>2014-05-01T15:25:39.486Z</time>
      </trkpt>
      <trkpt lat="46.39333" lon="5.69778">
        <ele>789.4</ele>
        <time>2014-05-01T15:25:42.340Z</time>
      </trkpt>
      <trkpt lat="46.39328" lon="5.69769">
        <ele>791.6</ele>
        <time>2014-05-01T15:25:45.408Z</time>
      </trkpt>
      <trkpt lat="46.39321" lon="5.69765">
        <ele>794.5</ele>
        <time>2014-05-01T15:25:48.451Z</time>
      </trkpt>
      <trkpt lat="46.39317" lon="5.69765">
        <ele>798.7</ele>
        <time>2014-05-01T15:25:51.321Z</time>
      </trkpt>
      <trkpt lat="46.39313" lon="5.69761">
        <ele>798</ele>
        <time>2014-05-01T15:25:54.353Z</time>
      </trkpt>
      <trkpt lat="46.3931" lon="5.69753">
        <ele>795.7</ele>
        <time>2014-05-01T15:25:57.299Z</time>
      </trkpt>
      <trkpt lat="46.39308" lon="5.69745">
        <ele>797.4</ele>
        <time>2014-05-01T15:26:00.539Z</time>
      </trkpt>
      <trkpt lat="46.39307" lon="5.69739">
        <ele>794.8</ele>
        <time>2014-05-01T15:26:03.302Z</time>
      </trkpt>
      <trkpt lat="46.39305" lon="5.69733">
        <ele>791.7</ele>
        <time>2014-05-01T15:26:06.357Z</time>
      </trkpt>
      <trkpt lat="46.39305" lon="5.69727">
        <ele>793.3</ele>
        <time>2014-05-01T15:26:09.346Z</time>
      </trkpt>
      <trkpt lat="46.39305" lon="5.69719">
        <ele>788.7</ele>
        <time>2014-05-01T15:26:12.463Z</time>
      </trkpt>
      <trkpt lat="46.39304" lon="5.69709">
        <ele>786.5</ele>
        <time>2014-05-01T15:26:15.333Z</time>
      </trkpt>
      <trkpt lat="46.39303" lon="5.69702">
        <ele>785.9</ele>
        <time>2014-05-01T15:26:18.347Z</time>
      </trkpt>
      <trkpt lat="46.39303" lon="5.69694">
        <ele>783.2</ele>
        <time>2014-05-01T15:26:21.373Z</time>
      </trkpt>
      <trkpt lat="46.39302" lon="5.69687">
        <ele>781.2</ele>
        <time>2014-05-01T15:26:24.297Z</time>
      </trkpt>
      <trkpt lat="46.39301" lon="5.69679">
        <ele>779.5</ele>
        <time>2014-05-01T15:26:27.457Z</time>
      </trkpt>
      <trkpt lat="46.39299" lon="5.69671">
        <ele>778.3</ele>
        <time>2014-05-01T15:26:30.300Z</time>
      </trkpt>
      <trkpt lat="46.39296" lon="5.69662">
        <ele>776.5</ele>
        <time>2014-05-01T15:26:33.447Z</time>
      </trkpt>
      <trkpt lat="46.39293" lon="5.69651">
        <ele>772.1</ele>
        <time>2014-05-01T15:26:36.309Z</time>
      </trkpt>
      <trkpt lat="46.39288" lon="5.69644">
        <ele>768.7</ele>
        <time>2014-05-01T15:26:39.473Z</time>
      </trkpt>
      <trkpt lat="46.39281" lon="5.69635">
        <ele>770.5</ele>
        <time>2014-05-01T15:26:42.334Z</time>
      </trkpt>
      <trkpt lat="46.39273" lon="5.69624">
        <ele>769.8</ele>
        <time>2014-05-01T15:26:45.416Z</time>
      </trkpt>
      <trkpt lat="46.39265" lon="5.69615">
        <ele>770.1</ele>
        <time>2014-05-01T15:26:48.454Z</time>
      </trkpt>
      <trkpt lat="46.3926" lon="5.69606">
        <ele>769.1</ele>
        <time>2014-05-01T15:26:51.330Z</time>
      </trkpt>
      <trkpt lat="46.39256" lon="5.69596">
        <ele>767.5</ele>
        <time>2014-05-01T15:26:54.349Z</time>
      </trkpt>
      <trkpt lat="46.39252" lon="5.69589">
        <ele>767.2</ele>
        <time>2014-05-01T15:26:57.299Z</time>
      </trkpt>
      <trkpt lat="46.39249" lon="5.69582">
        <ele>766.3</ele>
        <time>2014-05-01T15:27:00.353Z</time>
      </trkpt>
      <trkpt lat="46.39246" lon="5.69575">
        <ele>764.9</ele>
        <time>2014-05-01T15:27:03.305Z</time>
      </trkpt>
      <trkpt lat="46.39244" lon="5.69563">
        <ele>759.9</ele>
        <time>2014-05-01T15:27:06.350Z</time>
      </trkpt>
      <trkpt lat="46.39245" lon="5.69558">
        <ele>760.6</ele>
        <time>2014-05-01T15:27:09.325Z</time>
      </trkpt>
      <trkpt lat="46.39247" lon="5.69554">
        <ele>762.6</ele>
        <time>2014-05-01T15:27:12.473Z</time>
      </trkpt>
      <trkpt lat="46.39248" lon="5.6955">
        <ele>760.5</ele>
        <time>2014-05-01T15:27:15.339Z</time>
      </trkpt>
      <trkpt lat="46.39247" lon="5.69543">
        <ele>758.9</ele>
        <time>2014-05-01T15:27:18.388Z</time>
      </trkpt>
      <trkpt lat="46.39245" lon="5.69531">
        <ele>757</ele>
        <time>2014-05-01T15:27:21.357Z</time>
      </trkpt>
      <trkpt lat="46.39243" lon="5.6952">
        <ele>757.7</ele>
        <time>2014-05-01T15:27:24.297Z</time>
      </trkpt>
      <trkpt lat="46.39238" lon="5.69512">
        <ele>759.2</ele>
        <time>2014-05-01T15:27:27.378Z</time>
      </trkpt>
      <trkpt lat="46.39231" lon="5.69502">
        <ele>760</ele>
        <time>2014-05-01T15:27:30.299Z</time>
      </trkpt>
      <trkpt lat="46.39225" lon="5.69492">
        <ele>759.7</ele>
        <time>2014-05-01T15:27:33.446Z</time>
      </trkpt>
      <trkpt lat="46.3922" lon="5.69484">
        <ele>761.1</ele>
        <time>2014-05-01T15:27:36.298Z</time>
      </trkpt>
      <trkpt lat="46.39214" lon="5.69478">
        <ele>760.1</ele>
        <time>2014-05-01T15:27:39.445Z</time>
      </trkpt>
      <trkpt lat="46.39206" lon="5.69472">
        <ele>759.2</ele>
        <time>2014-05-01T15:27:42.325Z</time>
      </trkpt>
      <trkpt lat="46.39199" lon="5.69465">
        <ele>762.2</ele>
        <time>2014-05-01T15:27:45.339Z</time>
      </trkpt>
      <trkpt lat="46.39192" lon="5.69455">
        <ele>764.8</ele>
        <time>2014-05-01T15:27:48.351Z</time>
      </trkpt>
      <trkpt lat="46.39184" lon="5.69442">
        <ele>762.4</ele>
        <time>2014-05-01T15:27:51.349Z</time>
      </trkpt>
      <trkpt lat="46.39173" lon="5.69432">
        <ele>757</ele>
        <time>2014-05-01T15:27:54.375Z</time>
      </trkpt>
      <trkpt lat="46.39166" lon="5.69422">
        <ele>759</ele>
        <time>2014-05-01T15:27:57.299Z</time>
      </trkpt>
      <trkpt lat="46.39159" lon="5.69411">
        <ele>759.8</ele>
        <time>2014-05-01T15:28:00.440Z</time>
      </trkpt>
      <trkpt lat="46.39153" lon="5.69405">
        <ele>763.4</ele>
        <time>2014-05-01T15:28:03.301Z</time>
      </trkpt>
      <trkpt lat="46.39147" lon="5.69401">
        <ele>764.1</ele>
        <time>2014-05-01T15:28:06.468Z</time>
      </trkpt>
      <trkpt lat="46.39141" lon="5.69396">
        <ele>764.5</ele>
        <time>2014-05-01T15:28:09.306Z</time>
      </trkpt>
      <trkpt lat="46.39134" lon="5.69394">
        <ele>762</ele>
        <time>2014-05-01T15:28:12.486Z</time>
      </trkpt>
      <trkpt lat="46.39127" lon="5.69394">
        <ele>760</ele>
        <time>2014-05-01T15:28:15.341Z</time>
      </trkpt>
      <trkpt lat="46.39119" lon="5.69391">
        <ele>754.8</ele>
        <time>2014-05-01T15:28:18.398Z</time>
      </trkpt>
      <trkpt lat="46.3911" lon="5.69387">
        <ele>755</ele>
        <time>2014-05-01T15:28:21.365Z</time>
      </trkpt>
      <trkpt lat="46.39104" lon="5.69388">
        <ele>756.5</ele>
        <time>2014-05-01T15:28:24.308Z</time>
      </trkpt>
      <trkpt lat="46.39098" lon="5.69387">
        <ele>757.1</ele>
        <time>2014-05-01T15:28:27.472Z</time>
      </trkpt>
      <trkpt lat="46.39093" lon="5.69379">
        <ele>757.5</ele>
        <time>2014-05-01T15:28:30.299Z</time>
      </trkpt>
      <trkpt lat="46.39086" lon="5.69373">
        <ele>758.7</ele>
        <time>2014-05-01T15:28:33.426Z</time>
      </trkpt>
      <trkpt lat="46.3908" lon="5.69368">
        <ele>754.2</ele>
        <time>2014-05-01T15:28:36.304Z</time>
      </trkpt>
      <trkpt lat="46.39076" lon="5.69362">
        <ele>754.7</ele>
        <time>2014-05-01T15:28:39.450Z</time>
      </trkpt>
      <trkpt lat="46.3907" lon="5.69355">
        <ele>749.8</ele>
        <time>2014-05-01T15:28:42.321Z</time>
      </trkpt>
      <trkpt lat="46.39063" lon="5.69344">
        <ele>749.4</ele>
        <time>2014-05-01T15:28:45.436Z</time>
      </trkpt>
      <trkpt lat="46.39057" lon="5.69336">
        <ele>751.4</ele>
        <time>2014-05-01T15:28:48.363Z</time>
      </trkpt>
      <trkpt lat="46.39051" lon="5.6933">
        <ele>744</ele>
        <time>2014-05-01T15:28:51.359Z</time>
      </trkpt>
      <trkpt lat="46.39046" lon="5.69325">
        <ele>734.7</ele>
        <time>2014-05-01T15:28:54.375Z</time>
      </trkpt>
      <trkpt lat="46.39041" lon="5.69319">
        <ele>732.4</ele>
        <time>2014-05-01T15:28:57.297Z</time>
      </trkpt>
      <trkpt lat="46.39038" lon="5.69315">
        <ele>734.9</ele>
        <time>2014-05-01T15:29:00.419Z</time>
      </trkpt>
      <trkpt lat="46.39033" lon="5.69312">
        <ele>734.1</ele>
        <time>2014-05-01T15:29:03.300Z</time>
      </trkpt>
      <trkpt lat="46.39028" lon="5.69309">
        <ele>736.2</ele>
        <time>2014-05-01T15:29:06.462Z</time>
      </trkpt>
      <trkpt lat="46.39021" lon="5.69307">
        <ele>738.7</ele>
        <time>2014-05-01T15:29:09.300Z</time>
      </trkpt>
      <trkpt lat="46.39014" lon="5.69305">
        <ele>738.9</ele>
        <time>2014-05-01T15:29:12.414Z</time>
      </trkpt>
      <trkpt lat="46.39007" lon="5.69303">
        <ele>738.8</ele>
        <time>2014-05-01T15:29:15.336Z</time>
      </trkpt>
      <trkpt lat="46.39001" lon="5.69299">
        <ele>737.9</ele>
        <time>2014-05-01T15:29:18.409Z</time>
      </trkpt>
      <trkpt lat="46.38996" lon="5.69295">
        <ele>735.7</ele>
        <time>2014-05-01T15:29:21.342Z</time>
      </trkpt>
      <trkpt lat="46.38989" lon="5.69292">
        <ele>738.5</ele>
        <time>2014-05-01T15:29:24.322Z</time>
      </trkpt>
      <trkpt lat="46.38981" lon="5.6929">
        <ele>739.6</ele>
        <time>2014-05-01T15:29:27.339Z</time>
      </trkpt>
      <trkpt lat="46.38972" lon="5.6929">
        <ele>744.1</ele>
        <time>2014-05-01T15:29:30.298Z</time>
      </trkpt>
      <trkpt lat="46.38965" lon="5.69288">
        <ele>743.3</ele>
        <time>2014-05-01T15:29:33.426Z</time>
      </trkpt>
      <trkpt lat="46.38959" lon="5.69281">
        <ele>741.4</ele>
        <time>2014-05-01T15:29:36.305Z</time>
      </trkpt>
      <trkpt lat="46.38954" lon="5.69276">
        <ele>741.7</ele>
        <time>2014-05-01T15:29:39.410Z</time>
      </trkpt>
      <trkpt lat="46.3895" lon="5.69271">
        <ele>748.9</ele>
        <time>2014-05-01T15:29:42.307Z</time>
      </trkpt>
      <trkpt lat="46.38942" lon="5.69266">
        <ele>750.8</ele>
        <time>2014-05-01T15:29:45.403Z</time>
      </trkpt>
      <trkpt lat="46.38936" lon="5.69257">
        <ele>746.1</ele>
        <time>2014-05-01T15:29:48.322Z</time>
      </trkpt>
      <trkpt lat="46.38931" lon="5.69248">
        <ele>744.4</ele>
        <time>2014-05-01T15:29:51.317Z</time>
      </trkpt>
      <trkpt lat="46.38927" lon="5.69242">
        <ele>742.6</ele>
        <time>2014-05-01T15:29:54.367Z</time>
      </trkpt>
      <trkpt lat="46.38923" lon="5.69234">
        <ele>737.3</ele>
        <time>2014-05-01T15:29:57.297Z</time>
      </trkpt>
      <trkpt lat="46.38916" lon="5.69225">
        <ele>736.6</ele>
        <time>2014-05-01T15:30:00.357Z</time>
      </trkpt>
      <trkpt lat="46.38907" lon="5.69219">
        <ele>734.1</ele>
        <time>2014-05-01T15:30:03.300Z</time>
      </trkpt>
      <trkpt lat="46.38882" lon="5.69201">
        <ele>732.8</ele>
        <time>2014-05-01T15:30:06.388Z</time>
      </trkpt>
      <trkpt lat="46.38874" lon="5.69197">
        <ele>731</ele>
        <time>2014-05-01T15:30:09.302Z</time>
      </trkpt>
      <trkpt lat="46.38871" lon="5.69197">
        <ele>737.2</ele>
        <time>2014-05-01T15:30:12.332Z</time>
      </trkpt>
      <trkpt lat="46.38867" lon="5.69194">
        <ele>740.4</ele>
        <time>2014-05-01T15:30:15.318Z</time>
      </trkpt>
      <trkpt lat="46.38861" lon="5.69188">
        <ele>737.4</ele>
        <time>2014-05-01T15:30:18.434Z</time>
      </trkpt>
      <trkpt lat="46.38854" lon="5.69181">
        <ele>734.1</ele>
        <time>2014-05-01T15:30:21.336Z</time>
      </trkpt>
      <trkpt lat="46.38847" lon="5.69175">
        <ele>733.8</ele>
        <time>2014-05-01T15:30:24.338Z</time>
      </trkpt>
      <trkpt lat="46.38839" lon="5.69168">
        <ele>736.3</ele>
        <time>2014-05-01T15:30:27.356Z</time>
      </trkpt>
      <trkpt lat="46.3883" lon="5.69161">
        <ele>736.8</ele>
        <time>2014-05-01T15:30:30.298Z</time>
      </trkpt>
      <trkpt lat="46.38821" lon="5.69154">
        <ele>739.1</ele>
        <time>2014-05-01T15:30:33.330Z</time>
      </trkpt>
      <trkpt lat="46.38813" lon="5.69148">
        <ele>739.6</ele>
        <time>2014-05-01T15:30:36.301Z</time>
      </trkpt>
      <trkpt lat="46.38806" lon="5.69145">
        <ele>740.2</ele>
        <time>2014-05-01T15:30:39.405Z</time>
      </trkpt>
      <trkpt lat="46.38799" lon="5.69139">
        <ele>739.5</ele>
        <time>2014-05-01T15:30:42.301Z</time>
      </trkpt>
      <trkpt lat="46.38794" lon="5.69129">
        <ele>739.3</ele>
        <time>2014-05-01T15:30:45.408Z</time>
      </trkpt>
      <trkpt lat="46.38789" lon="5.69122">
        <ele>738.9</ele>
        <time>2014-05-01T15:30:48.325Z</time>
      </trkpt>
      <trkpt lat="46.3878" lon="5.69126">
        <ele>726.1</ele>
        <time>2014-05-01T15:30:51.402Z</time>
      </trkpt>
      <trkpt lat="46.38772" lon="5.69126">
        <ele>725.4</ele>
        <time>2014-05-01T15:30:54.392Z</time>
      </trkpt>
      <trkpt lat="46.38764" lon="5.69123">
        <ele>720</ele>
        <time>2014-05-01T15:30:57.315Z</time>
      </trkpt>
      <trkpt lat="46.38755" lon="5.69117">
        <ele>714.7</ele>
        <time>2014-05-01T15:31:00.464Z</time>
      </trkpt>
      <trkpt lat="46.38746" lon="5.69107">
        <ele>714.1</ele>
        <time>2014-05-01T15:31:03.300Z</time>
      </trkpt>
      <trkpt lat="46.3874" lon="5.69099">
        <ele>714.3</ele>
        <time>2014-05-01T15:31:06.432Z</time>
      </trkpt>
      <trkpt lat="46.38735" lon="5.69092">
        <ele>713.9</ele>
        <time>2014-05-01T15:31:09.306Z</time>
      </trkpt>
      <trkpt lat="46.38729" lon="5.69085">
        <ele>714.4</ele>
        <time>2014-05-01T15:31:12.427Z</time>
      </trkpt>
      <trkpt lat="46.38725" lon="5.69083">
        <ele>716.7</ele>
        <time>2014-05-01T15:31:15.302Z</time>
      </trkpt>
      <trkpt lat="46.38722" lon="5.69082">
        <ele>717.9</ele>
        <time>2014-05-01T15:31:18.364Z</time>
      </trkpt>
      <trkpt lat="46.38718" lon="5.69077">
        <ele>719.9</ele>
        <time>2014-05-01T15:31:21.334Z</time>
      </trkpt>
      <trkpt lat="46.38716" lon="5.69071">
        <ele>720.3</ele>
        <time>2014-05-01T15:31:24.359Z</time>
      </trkpt>
      <trkpt lat="46.38715" lon="5.6907">
        <ele>721.9</ele>
        <time>2014-05-01T15:31:27.383Z</time>
      </trkpt>
      <trkpt lat="46.38714" lon="5.69067">
        <ele>722</ele>
        <time>2014-05-01T15:31:30.297Z</time>
      </trkpt>
      <trkpt lat="46.38711" lon="5.69063">
        <ele>725</ele>
        <time>2014-05-01T15:31:33.448Z</time>
      </trkpt>
      <trkpt lat="46.38706" lon="5.69061">
        <ele>725.1</ele>
        <time>2014-05-01T15:31:36.301Z</time>
      </trkpt>
      <trkpt lat="46.38703" lon="5.69058">
        <ele>726</ele>
        <time>2014-05-01T15:31:39.344Z</time>
      </trkpt>
      <trkpt lat="46.38701" lon="5.69052">
        <ele>726</ele>
        <time>2014-05-01T15:31:42.301Z</time>
      </trkpt>
      <trkpt lat="46.38697" lon="5.69048">
        <ele>726.7</ele>
        <time>2014-05-01T15:31:45.466Z</time>
      </trkpt>
      <trkpt lat="46.3869" lon="5.69045">
        <ele>727.8</ele>
        <time>2014-05-01T15:31:48.332Z</time>
      </trkpt>
      <trkpt lat="46.38683" lon="5.6904">
        <ele>727.7</ele>
        <time>2014-05-01T15:31:51.416Z</time>
      </trkpt>
      <trkpt lat="46.38677" lon="5.69034">
        <ele>728.6</ele>
        <time>2014-05-01T15:31:54.426Z</time>
      </trkpt>
      <trkpt lat="46.38673" lon="5.69029">
        <ele>731.6</ele>
        <time>2014-05-01T15:31:57.306Z</time>
      </trkpt>
      <trkpt lat="46.3867" lon="5.69027">
        <ele>730.9</ele>
        <time>2014-05-01T15:32:00.343Z</time>
      </trkpt>
      <trkpt lat="46.38666" lon="5.69024">
        <ele>731.2</ele>
        <time>2014-05-01T15:32:03.300Z</time>
      </trkpt>
      <trkpt lat="46.38662" lon="5.69018">
        <ele>731.8</ele>
        <time>2014-05-01T15:32:06.452Z</time>
      </trkpt>
      <trkpt lat="46.38658" lon="5.69012">
        <ele>731.9</ele>
        <time>2014-05-01T15:32:09.311Z</time>
      </trkpt>
      <trkpt lat="46.38654" lon="5.69005">
        <ele>735.7</ele>
        <time>2014-05-01T15:32:12.487Z</time>
      </trkpt>
      <trkpt lat="46.3865" lon="5.68999">
        <ele>737.6</ele>
        <time>2014-05-01T15:32:15.325Z</time>
      </trkpt>
      <trkpt lat="46.38646" lon="5.68993">
        <ele>740.4</ele>
        <time>2014-05-01T15:32:18.473Z</time>
      </trkpt>
      <trkpt lat="46.38642" lon="5.68986">
        <ele>742.5</ele>
        <time>2014-05-01T15:32:21.359Z</time>
      </trkpt>
      <trkpt lat="46.38638" lon="5.68975">
        <ele>738.6</ele>
        <time>2014-05-01T15:32:24.370Z</time>
      </trkpt>
      <trkpt lat="46.38636" lon="5.68964">
        <ele>737.2</ele>
        <time>2014-05-01T15:32:27.434Z</time>
      </trkpt>
      <trkpt lat="46.38637" lon="5.68955">
        <ele>735.6</ele>
        <time>2014-05-01T15:32:30.304Z</time>
      </trkpt>
      <trkpt lat="46.38638" lon="5.68945">
        <ele>734.6</ele>
        <time>2014-05-01T15:32:33.357Z</time>
      </trkpt>
      <trkpt lat="46.38639" lon="5.68938">
        <ele>735.8</ele>
        <time>2014-05-01T15:32:36.300Z</time>
      </trkpt>
      <trkpt lat="46.38641" lon="5.68932">
        <ele>737.3</ele>
        <time>2014-05-01T15:32:39.515Z</time>
      </trkpt>
      <trkpt lat="46.38642" lon="5.68926">
        <ele>735.4</ele>
        <time>2014-05-01T15:32:42.304Z</time>
      </trkpt>
      <trkpt lat="46.38641" lon="5.68918">
        <ele>734.7</ele>
        <time>2014-05-01T15:32:45.492Z</time>
      </trkpt>
      <trkpt lat="46.3864" lon="5.68909">
        <ele>729.3</ele>
        <time>2014-05-01T15:32:48.333Z</time>
      </trkpt>
      <trkpt lat="46.38643" lon="5.68902">
        <ele>727.7</ele>
        <time>2014-05-01T15:32:51.449Z</time>
      </trkpt>
      <trkpt lat="46.38643" lon="5.68892">
        <ele>722.4</ele>
        <time>2014-05-01T15:32:54.351Z</time>
      </trkpt>
      <trkpt lat="46.38644" lon="5.68885">
        <ele>723.3</ele>
        <time>2014-05-01T15:32:57.349Z</time>
      </trkpt>
      <trkpt lat="46.38647" lon="5.6888">
        <ele>727.2</ele>
        <time>2014-05-01T15:33:00.318Z</time>
      </trkpt>
      <trkpt lat="46.38651" lon="5.68874">
        <ele>728.5</ele>
        <time>2014-05-01T15:33:03.299Z</time>
      </trkpt>
      <trkpt lat="46.38656" lon="5.6887">
        <ele>729.2</ele>
        <time>2014-05-01T15:33:06.445Z</time>
      </trkpt>
      <trkpt lat="46.38659" lon="5.68863">
        <ele>727</ele>
        <time>2014-05-01T15:33:09.309Z</time>
      </trkpt>
      <trkpt lat="46.3866" lon="5.68854">
        <ele>722.1</ele>
        <time>2014-05-01T15:33:12.368Z</time>
      </trkpt>
      <trkpt lat="46.38661" lon="5.68847">
        <ele>722.2</ele>
        <time>2014-05-01T15:33:15.306Z</time>
      </trkpt>
      <trkpt lat="46.38665" lon="5.68844">
        <ele>724.8</ele>
        <time>2014-05-01T15:33:18.373Z</time>
      </trkpt>
      <trkpt lat="46.38671" lon="5.68845">
        <ele>720.8</ele>
        <time>2014-05-01T15:33:21.346Z</time>
      </trkpt>
      <trkpt lat="46.38676" lon="5.68844">
        <ele>722.9</ele>
        <time>2014-05-01T15:33:24.392Z</time>
      </trkpt>
      <trkpt lat="46.38683" lon="5.68841">
        <ele>722.4</ele>
        <time>2014-05-01T15:33:27.425Z</time>
      </trkpt>
      <trkpt lat="46.38688" lon="5.68835">
        <ele>722.6</ele>
        <time>2014-05-01T15:33:30.327Z</time>
      </trkpt>
      <trkpt lat="46.38692" lon="5.68827">
        <ele>720.9</ele>
        <time>2014-05-01T15:33:33.366Z</time>
      </trkpt>
      <trkpt lat="46.38694" lon="5.68819">
        <ele>722.1</ele>
        <time>2014-05-01T15:33:36.301Z</time>
      </trkpt>
      <trkpt lat="46.38697" lon="5.68813">
        <ele>723.4</ele>
        <time>2014-05-01T15:33:39.517Z</time>
      </trkpt>
      <trkpt lat="46.38699" lon="5.68807">
        <ele>723.9</ele>
        <time>2014-05-01T15:33:42.304Z</time>
      </trkpt>
      <trkpt lat="46.38703" lon="5.68801">
        <ele>724.1</ele>
        <time>2014-05-01T15:33:45.514Z</time>
      </trkpt>
      <trkpt lat="46.38706" lon="5.68794">
        <ele>725.2</ele>
        <time>2014-05-01T15:33:48.337Z</time>
      </trkpt>
      <trkpt lat="46.3871" lon="5.68787">
        <ele>721.9</ele>
        <time>2014-05-01T15:33:51.467Z</time>
      </trkpt>
      <trkpt lat="46.38714" lon="5.68782">
        <ele>722.2</ele>
        <time>2014-05-01T15:33:54.335Z</time>
      </trkpt>
      <trkpt lat="46.38719" lon="5.6878">
        <ele>722.5</ele>
        <time>2014-05-01T15:33:57.306Z</time>
      </trkpt>
      <trkpt lat="46.38725" lon="5.68781">
        <ele>724.6</ele>
        <time>2014-05-01T15:34:00.395Z</time>
      </trkpt>
      <trkpt lat="46.38732" lon="5.68785">
        <ele>723.8</ele>
        <time>2014-05-01T15:34:03.299Z</time>
      </trkpt>
      <trkpt lat="46.38739" lon="5.68788">
        <ele>723.6</ele>
        <time>2014-05-01T15:34:06.362Z</time>
      </trkpt>
      <trkpt lat="46.38743" lon="5.6879">
        <ele>727.8</ele>
        <time>2014-05-01T15:34:09.303Z</time>
      </trkpt>
      <trkpt lat="46.38745" lon="5.68791">
        <ele>732.4</ele>
        <time>2014-05-01T15:34:12.488Z</time>
      </trkpt>
      <trkpt lat="46.38749" lon="5.68794">
        <ele>733</ele>
        <time>2014-05-01T15:34:15.319Z</time>
      </trkpt>
      <trkpt lat="46.38758" lon="5.68791">
        <ele>733.9</ele>
        <time>2014-05-01T15:34:18.359Z</time>
      </trkpt>
      <trkpt lat="46.38766" lon="5.68791">
        <ele>734.8</ele>
        <time>2014-05-01T15:34:21.347Z</time>
      </trkpt>
      <trkpt lat="46.38771" lon="5.68794">
        <ele>739.4</ele>
        <time>2014-05-01T15:34:24.424Z</time>
      </trkpt>
      <trkpt lat="46.38775" lon="5.68797">
        <ele>743</ele>
        <time>2014-05-01T15:34:27.426Z</time>
      </trkpt>
      <trkpt lat="46.38781" lon="5.68803">
        <ele>744.1</ele>
        <time>2014-05-01T15:34:30.340Z</time>
      </trkpt>
      <trkpt lat="46.38786" lon="5.68807">
        <ele>747.8</ele>
        <time>2014-05-01T15:34:33.487Z</time>
      </trkpt>
      <trkpt lat="46.3879" lon="5.68808">
        <ele>748.3</ele>
        <time>2014-05-01T15:34:36.301Z</time>
      </trkpt>
      <trkpt lat="46.38794" lon="5.6881">
        <ele>748.5</ele>
        <time>2014-05-01T15:34:39.445Z</time>
      </trkpt>
      <trkpt lat="46.38799" lon="5.6881">
        <ele>751.8</ele>
        <time>2014-05-01T15:34:42.300Z</time>
      </trkpt>
      <trkpt lat="46.38803" lon="5.68804">
        <ele>753.7</ele>
        <time>2014-05-01T15:34:45.355Z</time>
      </trkpt>
      <trkpt lat="46.38807" lon="5.688">
        <ele>753.6</ele>
        <time>2014-05-01T15:34:48.334Z</time>
      </trkpt>
      <trkpt lat="46.38812" lon="5.68801">
        <ele>752.7</ele>
        <time>2014-05-01T15:34:51.487Z</time>
      </trkpt>
      <trkpt lat="46.38819" lon="5.68803">
        <ele>754.2</ele>
        <time>2014-05-01T15:34:54.414Z</time>
      </trkpt>
      <trkpt lat="46.38826" lon="5.68805">
        <ele>754.5</ele>
        <time>2014-05-01T15:34:57.397Z</time>
      </trkpt>
      <trkpt lat="46.38834" lon="5.68806">
        <ele>754.6</ele>
        <time>2014-05-01T15:35:00.352Z</time>
      </trkpt>
      <trkpt lat="46.38841" lon="5.68804">
        <ele>752.8</ele>
        <time>2014-05-01T15:35:03.295Z</time>
      </trkpt>
      <trkpt lat="46.38848" lon="5.68801">
        <ele>751.3</ele>
        <time>2014-05-01T15:35:06.418Z</time>
      </trkpt>
      <trkpt lat="46.38855" lon="5.68798">
        <ele>754.3</ele>
        <time>2014-05-01T15:35:09.300Z</time>
      </trkpt>
      <trkpt lat="46.38859" lon="5.68794">
        <ele>755.8</ele>
        <time>2014-05-01T15:35:12.452Z</time>
      </trkpt>
      <trkpt lat="46.38864" lon="5.68786">
        <ele>760</ele>
        <time>2014-05-01T15:35:15.319Z</time>
      </trkpt>
      <trkpt lat="46.3887" lon="5.68779">
        <ele>762.6</ele>
        <time>2014-05-01T15:35:18.512Z</time>
      </trkpt>
      <trkpt lat="46.38876" lon="5.68774">
        <ele>764.4</ele>
        <time>2014-05-01T15:35:21.346Z</time>
      </trkpt>
      <trkpt lat="46.38883" lon="5.68775">
        <ele>759.1</ele>
        <time>2014-05-01T15:35:24.441Z</time>
      </trkpt>
      <trkpt lat="46.3889" lon="5.68778">
        <ele>759.3</ele>
        <time>2014-05-01T15:35:27.353Z</time>
      </trkpt>
      <trkpt lat="46.38895" lon="5.68779">
        <ele>760.6</ele>
        <time>2014-05-01T15:35:30.363Z</time>
      </trkpt>
      <trkpt lat="46.38899" lon="5.68783">
        <ele>761.6</ele>
        <time>2014-05-01T15:35:33.306Z</time>
      </trkpt>
      <trkpt lat="46.38905" lon="5.68786">
        <ele>761</ele>
        <time>2014-05-01T15:35:36.301Z</time>
      </trkpt>
      <trkpt lat="46.38912" lon="5.68789">
        <ele>766.5</ele>
        <time>2014-05-01T15:35:39.373Z</time>
      </trkpt>
      <trkpt lat="46.3892" lon="5.6879">
        <ele>769.3</ele>
        <time>2014-05-01T15:35:42.306Z</time>
      </trkpt>
      <trkpt lat="46.38929" lon="5.68793">
        <ele>767.3</ele>
        <time>2014-05-01T15:35:45.424Z</time>
      </trkpt>
      <trkpt lat="46.38937" lon="5.688">
        <ele>767.5</ele>
        <time>2014-05-01T15:35:48.314Z</time>
      </trkpt>
      <trkpt lat="46.38944" lon="5.68803">
        <ele>766.3</ele>
        <time>2014-05-01T15:35:51.339Z</time>
      </trkpt>
      <trkpt lat="46.38949" lon="5.68805">
        <ele>764</ele>
        <time>2014-05-01T15:35:54.338Z</time>
      </trkpt>
      <trkpt lat="46.38954" lon="5.68808">
        <ele>771.7</ele>
        <time>2014-05-01T15:35:57.389Z</time>
      </trkpt>
      <trkpt lat="46.38961" lon="5.68812">
        <ele>767.6</ele>
        <time>2014-05-01T15:36:00.358Z</time>
      </trkpt>
      <trkpt lat="46.38968" lon="5.68816">
        <ele>764.2</ele>
        <time>2014-05-01T15:36:03.313Z</time>
      </trkpt>
      <trkpt lat="46.38973" lon="5.68819">
        <ele>760</ele>
        <time>2014-05-01T15:36:06.438Z</time>
      </trkpt>
      <trkpt lat="46.38976" lon="5.68825">
        <ele>760.6</ele>
        <time>2014-05-01T15:36:09.300Z</time>
      </trkpt>
      <trkpt lat="46.38981" lon="5.68831">
        <ele>758.4</ele>
        <time>2014-05-01T15:36:12.482Z</time>
      </trkpt>
      <trkpt lat="46.38986" lon="5.68838">
        <ele>763.2</ele>
        <time>2014-05-01T15:36:15.304Z</time>
      </trkpt>
      <trkpt lat="46.38993" lon="5.68842">
        <ele>764.9</ele>
        <time>2014-05-01T15:36:18.362Z</time>
      </trkpt>
      <trkpt lat="46.39" lon="5.68845">
        <ele>768.9</ele>
        <time>2014-05-01T15:36:21.362Z</time>
      </trkpt>
      <trkpt lat="46.39007" lon="5.68851">
        <ele>769.6</ele>
        <time>2014-05-01T15:36:24.469Z</time>
      </trkpt>
      <trkpt lat="46.39013" lon="5.68857">
        <ele>769.1</ele>
        <time>2014-05-01T15:36:27.305Z</time>
      </trkpt>
      <trkpt lat="46.39019" lon="5.68862">
        <ele>768.3</ele>
        <time>2014-05-01T15:36:30.368Z</time>
      </trkpt>
      <trkpt lat="46.39024" lon="5.68867">
        <ele>768</ele>
        <time>2014-05-01T15:36:33.396Z</time>
      </trkpt>
      <trkpt lat="46.39023" lon="5.68875">
        <ele>766.9</ele>
        <time>2014-05-01T15:36:36.298Z</time>
      </trkpt>
      <trkpt lat="46.39024" lon="5.68882">
        <ele>765.6</ele>
        <time>2014-05-01T15:36:39.385Z</time>
      </trkpt>
      <trkpt lat="46.39029" lon="5.68891">
        <ele>763.8</ele>
        <time>2014-05-01T15:36:42.301Z</time>
      </trkpt>
      <trkpt lat="46.39032" lon="5.68901">
        <ele>764.7</ele>
        <time>2014-05-01T15:36:45.486Z</time>
      </trkpt>
      <trkpt lat="46.39037" lon="5.68906">
        <ele>766.3</ele>
        <time>2014-05-01T15:36:48.314Z</time>
      </trkpt>
      <trkpt lat="46.39044" lon="5.68912">
        <ele>768.8</ele>
        <time>2014-05-01T15:36:51.478Z</time>
      </trkpt>
      <trkpt lat="46.39049" lon="5.68916">
        <ele>767.3</ele>
        <time>2014-05-01T15:36:54.367Z</time>
      </trkpt>
      <trkpt lat="46.39053" lon="5.6892">
        <ele>766.9</ele>
        <time>2014-05-01T15:36:57.422Z</time>
      </trkpt>
      <trkpt lat="46.39058" lon="5.68924">
        <ele>773.7</ele>
        <time>2014-05-01T15:37:00.362Z</time>
      </trkpt>
      <trkpt lat="46.39064" lon="5.68926">
        <ele>775.3</ele>
        <time>2014-05-01T15:37:03.332Z</time>
      </trkpt>
      <trkpt lat="46.39069" lon="5.68928">
        <ele>779.4</ele>
        <time>2014-05-01T15:37:06.496Z</time>
      </trkpt>
      <trkpt lat="46.39074" lon="5.6893">
        <ele>777.8</ele>
        <time>2014-05-01T15:37:09.302Z</time>
      </trkpt>
      <trkpt lat="46.39078" lon="5.68936">
        <ele>778.9</ele>
        <time>2014-05-01T15:37:12.485Z</time>
      </trkpt>
      <trkpt lat="46.39081" lon="5.6894">
        <ele>778.4</ele>
        <time>2014-05-01T15:37:15.308Z</time>
      </trkpt>
      <trkpt lat="46.39086" lon="5.68943">
        <ele>778.5</ele>
        <time>2014-05-01T15:37:18.506Z</time>
      </trkpt>
      <trkpt lat="46.39092" lon="5.68945">
        <ele>776.3</ele>
        <time>2014-05-01T15:37:21.331Z</time>
      </trkpt>
      <trkpt lat="46.39093" lon="5.68947">
        <ele>780.4</ele>
        <time>2014-05-01T15:37:24.474Z</time>
      </trkpt>
      <trkpt lat="46.39097" lon="5.6895">
        <ele>783.4</ele>
        <time>2014-05-01T15:37:27.363Z</time>
      </trkpt>
      <trkpt lat="46.39103" lon="5.68955">
        <ele>782.7</ele>
        <time>2014-05-01T15:37:30.383Z</time>
      </trkpt>
      <trkpt lat="46.39107" lon="5.68959">
        <ele>783.1</ele>
        <time>2014-05-01T15:37:33.408Z</time>
      </trkpt>
      <trkpt lat="46.39113" lon="5.68964">
        <ele>783.4</ele>
        <time>2014-05-01T15:37:36.299Z</time>
      </trkpt>
      <trkpt lat="46.39119" lon="5.68969">
        <ele>786.2</ele>
        <time>2014-05-01T15:37:39.375Z</time>
      </trkpt>
      <trkpt lat="46.39125" lon="5.68975">
        <ele>783.2</ele>
        <time>2014-05-01T15:37:42.300Z</time>
      </trkpt>
      <trkpt lat="46.39133" lon="5.68981">
        <ele>781.6</ele>
        <time>2014-05-01T15:37:45.467Z</time>
      </trkpt>
      <trkpt lat="46.39138" lon="5.68985">
        <ele>785.6</ele>
        <time>2014-05-01T15:37:48.301Z</time>
      </trkpt>
      <trkpt lat="46.39144" lon="5.68991">
        <ele>790.9</ele>
        <time>2014-05-01T15:37:51.414Z</time>
      </trkpt>
      <trkpt lat="46.3915" lon="5.68995">
        <ele>789.9</ele>
        <time>2014-05-01T15:37:54.347Z</time>
      </trkpt>
      <trkpt lat="46.39157" lon="5.68999">
        <ele>791.7</ele>
        <time>2014-05-01T15:37:57.441Z</time>
      </trkpt>
      <trkpt lat="46.39162" lon="5.69005">
        <ele>794.5</ele>
        <time>2014-05-01T15:38:00.360Z</time>
      </trkpt>
      <trkpt lat="46.39166" lon="5.6901">
        <ele>796.7</ele>
        <time>2014-05-01T15:38:03.357Z</time>
      </trkpt>
      <trkpt lat="46.39171" lon="5.69014">
        <ele>797</ele>
        <time>2014-05-01T15:38:06.393Z</time>
      </trkpt>
      <trkpt lat="46.39176" lon="5.69017">
        <ele>793.8</ele>
        <time>2014-05-01T15:38:09.300Z</time>
      </trkpt>
      <trkpt lat="46.39181" lon="5.6902">
        <ele>789.4</ele>
        <time>2014-05-01T15:38:12.469Z</time>
      </trkpt>
      <trkpt lat="46.39187" lon="5.69024">
        <ele>789.2</ele>
        <time>2014-05-01T15:38:15.310Z</time>
      </trkpt>
      <trkpt lat="46.39193" lon="5.6903">
        <ele>789.5</ele>
        <time>2014-05-01T15:38:18.461Z</time>
      </trkpt>
      <trkpt lat="46.39198" lon="5.69036">
        <ele>791.2</ele>
        <time>2014-05-01T15:38:21.312Z</time>
      </trkpt>
      <trkpt lat="46.39205" lon="5.69042">
        <ele>789.7</ele>
        <time>2014-05-01T15:38:24.465Z</time>
      </trkpt>
      <trkpt lat="46.39212" lon="5.69049">
        <ele>792.6</ele>
        <time>2014-05-01T15:38:27.337Z</time>
      </trkpt>
      <trkpt lat="46.39218" lon="5.69056">
        <ele>794.2</ele>
        <time>2014-05-01T15:38:30.399Z</time>
      </trkpt>
      <trkpt lat="46.39224" lon="5.69062">
        <ele>793.6</ele>
        <time>2014-05-01T15:38:33.393Z</time>
      </trkpt>
      <trkpt lat="46.39232" lon="5.69066">
        <ele>793.5</ele>
        <time>2014-05-01T15:38:36.312Z</time>
      </trkpt>
      <trkpt lat="46.39241" lon="5.69067">
        <ele>788.9</ele>
        <time>2014-05-01T15:38:39.371Z</time>
      </trkpt>
      <trkpt lat="46.3925" lon="5.69068">
        <ele>785.3</ele>
        <time>2014-05-01T15:38:42.301Z</time>
      </trkpt>
      <trkpt lat="46.39258" lon="5.69071">
        <ele>782.9</ele>
        <time>2014-05-01T15:38:45.453Z</time>
      </trkpt>
      <trkpt lat="46.39265" lon="5.69073">
        <ele>771.1</ele>
        <time>2014-05-01T15:38:48.302Z</time>
      </trkpt>
      <trkpt lat="46.39273" lon="5.69076">
        <ele>772.5</ele>
        <time>2014-05-01T15:38:51.501Z</time>
      </trkpt>
      <trkpt lat="46.3928" lon="5.69079">
        <ele>771.7</ele>
        <time>2014-05-01T15:38:54.323Z</time>
      </trkpt>
      <trkpt lat="46.39286" lon="5.6908">
        <ele>771.7</ele>
        <time>2014-05-01T15:38:57.409Z</time>
      </trkpt>
      <trkpt lat="46.3929" lon="5.69083">
        <ele>780.3</ele>
        <time>2014-05-01T15:39:00.334Z</time>
      </trkpt>
      <trkpt lat="46.39293" lon="5.69086">
        <ele>782.4</ele>
        <time>2014-05-01T15:39:03.365Z</time>
      </trkpt>
      <trkpt lat="46.39296" lon="5.69086">
        <ele>783.4</ele>
        <time>2014-05-01T15:39:06.394Z</time>
      </trkpt>
      <trkpt lat="46.393" lon="5.69085">
        <ele>782.7</ele>
        <time>2014-05-01T15:39:09.299Z</time>
      </trkpt>
      <trkpt lat="46.39304" lon="5.69085">
        <ele>782.6</ele>
        <time>2014-05-01T15:39:12.455Z</time>
      </trkpt>
      <trkpt lat="46.39311" lon="5.69086">
        <ele>787</ele>
        <time>2014-05-01T15:39:15.301Z</time>
      </trkpt>
      <trkpt lat="46.39319" lon="5.69088">
        <ele>792.7</ele>
        <time>2014-05-01T15:39:18.517Z</time>
      </trkpt>
      <trkpt lat="46.39326" lon="5.6909">
        <ele>793.7</ele>
        <time>2014-05-01T15:39:21.307Z</time>
      </trkpt>
      <trkpt lat="46.39332" lon="5.69091">
        <ele>793.4</ele>
        <time>2014-05-01T15:39:24.432Z</time>
      </trkpt>
      <trkpt lat="46.3934" lon="5.6909">
        <ele>792.6</ele>
        <time>2014-05-01T15:39:27.365Z</time>
      </trkpt>
      <trkpt lat="46.39347" lon="5.69093">
        <ele>789.2</ele>
        <time>2014-05-01T15:39:30.422Z</time>
      </trkpt>
      <trkpt lat="46.39356" lon="5.69099">
        <ele>797</ele>
        <time>2014-05-01T15:39:33.387Z</time>
      </trkpt>
      <trkpt lat="46.39363" lon="5.69104">
        <ele>795</ele>
        <time>2014-05-01T15:39:36.331Z</time>
      </trkpt>
      <trkpt lat="46.3937" lon="5.69111">
        <ele>798.1</ele>
        <time>2014-05-01T15:39:39.436Z</time>
      </trkpt>
      <trkpt lat="46.39379" lon="5.69121">
        <ele>792.3</ele>
        <time>2014-05-01T15:39:42.301Z</time>
      </trkpt>
      <trkpt lat="46.39386" lon="5.69128">
        <ele>790.2</ele>
        <time>2014-05-01T15:39:45.529Z</time>
      </trkpt>
      <trkpt lat="46.39393" lon="5.69134">
        <ele>787.4</ele>
        <time>2014-05-01T15:39:48.304Z</time>
      </trkpt>
      <trkpt lat="46.39401" lon="5.6914">
        <ele>783.9</ele>
        <time>2014-05-01T15:39:51.495Z</time>
      </trkpt>
      <trkpt lat="46.3941" lon="5.69145">
        <ele>777.2</ele>
        <time>2014-05-01T15:39:54.330Z</time>
      </trkpt>
      <trkpt lat="46.39416" lon="5.69148">
        <ele>767.9</ele>
        <time>2014-05-01T15:39:57.480Z</time>
      </trkpt>
      <trkpt lat="46.39421" lon="5.69149">
        <ele>764.1</ele>
        <time>2014-05-01T15:40:00.391Z</time>
      </trkpt>
      <trkpt lat="46.39426" lon="5.69149">
        <ele>765.1</ele>
        <time>2014-05-01T15:40:03.391Z</time>
      </trkpt>
      <trkpt lat="46.39433" lon="5.69149">
        <ele>762.2</ele>
        <time>2014-05-01T15:40:06.477Z</time>
      </trkpt>
      <trkpt lat="46.39439" lon="5.69145">
        <ele>757</ele>
        <time>2014-05-01T15:40:09.301Z</time>
      </trkpt>
      <trkpt lat="46.39446" lon="5.69138">
        <ele>756.5</ele>
        <time>2014-05-01T15:40:12.463Z</time>
      </trkpt>
      <trkpt lat="46.39452" lon="5.69135">
        <ele>754.5</ele>
        <time>2014-05-01T15:40:15.300Z</time>
      </trkpt>
      <trkpt lat="46.39459" lon="5.6913">
        <ele>754.3</ele>
        <time>2014-05-01T15:40:18.467Z</time>
      </trkpt>
      <trkpt lat="46.39463" lon="5.69127">
        <ele>754.8</ele>
        <time>2014-05-01T15:40:21.325Z</time>
      </trkpt>
      <trkpt lat="46.39467" lon="5.69127">
        <ele>752.1</ele>
        <time>2014-05-01T15:40:24.353Z</time>
      </trkpt>
      <trkpt lat="46.39472" lon="5.69123">
        <ele>752.9</ele>
        <time>2014-05-01T15:40:27.341Z</time>
      </trkpt>
      <trkpt lat="46.39476" lon="5.69119">
        <ele>751</ele>
        <time>2014-05-01T15:40:30.446Z</time>
      </trkpt>
      <trkpt lat="46.3948" lon="5.69117">
        <ele>751.7</ele>
        <time>2014-05-01T15:40:33.349Z</time>
      </trkpt>
      <trkpt lat="46.39485" lon="5.69114">
        <ele>751.3</ele>
        <time>2014-05-01T15:40:36.361Z</time>
      </trkpt>
      <trkpt lat="46.39489" lon="5.69111">
        <ele>751.8</ele>
        <time>2014-05-01T15:40:39.376Z</time>
      </trkpt>
      <trkpt lat="46.39493" lon="5.69107">
        <ele>756.1</ele>
        <time>2014-05-01T15:40:42.300Z</time>
      </trkpt>
      <trkpt lat="46.39499" lon="5.69105">
        <ele>760.1</ele>
        <time>2014-05-01T15:40:45.431Z</time>
      </trkpt>
      <trkpt lat="46.39501" lon="5.69106">
        <ele>761.4</ele>
        <time>2014-05-01T15:40:48.307Z</time>
      </trkpt>
      <trkpt lat="46.39505" lon="5.69106">
        <ele>765.6</ele>
        <time>2014-05-01T15:40:51.305Z</time>
      </trkpt>
      <trkpt lat="46.39508" lon="5.69104">
        <ele>767.7</ele>
        <time>2014-05-01T15:40:54.307Z</time>
      </trkpt>
      <trkpt lat="46.39513" lon="5.69102">
        <ele>770.8</ele>
        <time>2014-05-01T15:40:57.501Z</time>
      </trkpt>
      <trkpt lat="46.39519" lon="5.691">
        <ele>772.2</ele>
        <time>2014-05-01T15:41:00.356Z</time>
      </trkpt>
      <trkpt lat="46.39525" lon="5.691">
        <ele>777.3</ele>
        <time>2014-05-01T15:41:03.413Z</time>
      </trkpt>
      <trkpt lat="46.39532" lon="5.69098">
        <ele>775.2</ele>
        <time>2014-05-01T15:41:06.399Z</time>
      </trkpt>
      <trkpt lat="46.39537" lon="5.69096">
        <ele>776.5</ele>
        <time>2014-05-01T15:41:09.311Z</time>
      </trkpt>
      <trkpt lat="46.39542" lon="5.69097">
        <ele>778</ele>
        <time>2014-05-01T15:41:12.427Z</time>
      </trkpt>
      <trkpt lat="46.39548" lon="5.69098">
        <ele>778.4</ele>
        <time>2014-05-01T15:41:15.301Z</time>
      </trkpt>
      <trkpt lat="46.39553" lon="5.69099">
        <ele>778.4</ele>
        <time>2014-05-01T15:41:18.321Z</time>
      </trkpt>
      <trkpt lat="46.3956" lon="5.69099">
        <ele>777.3</ele>
        <time>2014-05-01T15:41:21.317Z</time>
      </trkpt>
      <trkpt lat="46.39568" lon="5.69095">
        <ele>778.2</ele>
        <time>2014-05-01T15:41:24.364Z</time>
      </trkpt>
      <trkpt lat="46.39576" lon="5.69092">
        <ele>774.9</ele>
        <time>2014-05-01T15:41:27.314Z</time>
      </trkpt>
      <trkpt lat="46.39581" lon="5.6909">
        <ele>771.8</ele>
        <time>2014-05-01T15:41:30.299Z</time>
      </trkpt>
      <trkpt lat="46.39585" lon="5.69089">
        <ele>770.8</ele>
        <time>2014-05-01T15:41:33.305Z</time>
      </trkpt>
      <trkpt lat="46.39591" lon="5.6909">
        <ele>767.1</ele>
        <time>2014-05-01T15:41:36.315Z</time>
      </trkpt>
      <trkpt lat="46.39597" lon="5.69089">
        <ele>766</ele>
        <time>2014-05-01T15:41:39.309Z</time>
      </trkpt>
      <trkpt lat="46.39603" lon="5.69087">
        <ele>764.9</ele>
        <time>2014-05-01T15:41:42.364Z</time>
      </trkpt>
      <trkpt lat="46.39608" lon="5.69086">
        <ele>765.4</ele>
        <time>2014-05-01T15:41:45.300Z</time>
      </trkpt>
      <trkpt lat="46.39614" lon="5.69084">
        <ele>766.6</ele>
        <time>2014-05-01T15:41:48.300Z</time>
      </trkpt>
      <trkpt lat="46.39619" lon="5.69081">
        <ele>764.5</ele>
        <time>2014-05-01T15:41:51.299Z</time>
      </trkpt>
      <trkpt lat="46.39624" lon="5.69079">
        <ele>765.2</ele>
        <time>2014-05-01T15:41:54.338Z</time>
      </trkpt>
      <trkpt lat="46.39629" lon="5.69077">
        <ele>764.8</ele>
        <time>2014-05-01T15:41:57.298Z</time>
      </trkpt>
      <trkpt lat="46.39636" lon="5.69075">
        <ele>765.8</ele>
        <time>2014-05-01T15:42:00.307Z</time>
      </trkpt>
      <trkpt lat="46.39643" lon="5.69074">
        <ele>767</ele>
        <time>2014-05-01T15:42:03.302Z</time>
      </trkpt>
      <trkpt lat="46.39652" lon="5.69073">
        <ele>765.7</ele>
        <time>2014-05-01T15:42:06.324Z</time>
      </trkpt>
      <trkpt lat="46.39659" lon="5.69071">
        <ele>765.7</ele>
        <time>2014-05-01T15:42:09.323Z</time>
      </trkpt>
      <trkpt lat="46.39666" lon="5.6907">
        <ele>761.3</ele>
        <time>2014-05-01T15:42:12.358Z</time>
      </trkpt>
      <trkpt lat="46.39676" lon="5.69078">
        <ele>752.1</ele>
        <time>2014-05-01T15:42:15.354Z</time>
      </trkpt>
      <trkpt lat="46.39684" lon="5.69084">
        <ele>752.9</ele>
        <time>2014-05-01T15:42:18.289Z</time>
      </trkpt>
      <trkpt lat="46.39687" lon="5.69087">
        <ele>753.6</ele>
        <time>2014-05-01T15:42:21.298Z</time>
      </trkpt>
      <trkpt lat="46.3969" lon="5.69089">
        <ele>752.6</ele>
        <time>2014-05-01T15:42:24.253Z</time>
      </trkpt>
      <trkpt lat="46.39692" lon="5.6909">
        <ele>751.8</ele>
        <time>2014-05-01T15:42:27.192Z</time>
      </trkpt>
      <trkpt lat="46.39695" lon="5.69093">
        <ele>750</ele>
        <time>2014-05-01T15:42:30.207Z</time>
      </trkpt>
      <trkpt lat="46.39699" lon="5.69097">
        <ele>748.2</ele>
        <time>2014-05-01T15:42:33.072Z</time>
      </trkpt>
      <trkpt lat="46.39701" lon="5.691">
        <ele>749.7</ele>
        <time>2014-05-01T15:42:36.013Z</time>
      </trkpt>
      <trkpt lat="46.39701" lon="5.69103">
        <ele>749.2</ele>
        <time>2014-05-01T15:42:38.953Z</time>
      </trkpt>
      <trkpt lat="46.39703" lon="5.69104">
        <ele>748.7</ele>
        <time>2014-05-01T15:42:41.956Z</time>
      </trkpt>
      <trkpt lat="46.39704" lon="5.69105">
        <ele>748.4</ele>
        <time>2014-05-01T15:42:44.956Z</time>
      </trkpt>
      <trkpt lat="46.39706" lon="5.69105">
        <ele>750.2</ele>
        <time>2014-05-01T15:42:47.965Z</time>
      </trkpt>
      <trkpt lat="46.39713" lon="5.69107">
        <ele>755.6</ele>
        <time>2014-05-01T15:42:50.958Z</time>
      </trkpt>
      <trkpt lat="46.3972" lon="5.6911">
        <ele>758.6</ele>
        <time>2014-05-01T15:42:54.002Z</time>
      </trkpt>
      <trkpt lat="46.39727" lon="5.69114">
        <ele>756.6</ele>
        <time>2014-05-01T15:42:56.969Z</time>
      </trkpt>
      <trkpt lat="46.39733" lon="5.69118">
        <ele>755</ele>
        <time>2014-05-01T15:42:59.985Z</time>
      </trkpt>
      <trkpt lat="46.39739" lon="5.69122">
        <ele>755.7</ele>
        <time>2014-05-01T15:43:02.999Z</time>
      </trkpt>
      <trkpt lat="46.39747" lon="5.69125">
        <ele>755.4</ele>
        <time>2014-05-01T15:43:05.957Z</time>
      </trkpt>
      <trkpt lat="46.39755" lon="5.69127">
        <ele>755.6</ele>
        <time>2014-05-01T15:43:08.956Z</time>
      </trkpt>
      <trkpt lat="46.39761" lon="5.69127">
        <ele>755.3</ele>
        <time>2014-05-01T15:43:11.956Z</time>
      </trkpt>
      <trkpt lat="46.39767" lon="5.69128">
        <ele>755.2</ele>
        <time>2014-05-01T15:43:14.956Z</time>
      </trkpt>
      <trkpt lat="46.39773" lon="5.69127">
        <ele>756.2</ele>
        <time>2014-05-01T15:43:17.958Z</time>
      </trkpt>
      <trkpt lat="46.3978" lon="5.69124">
        <ele>757.1</ele>
        <time>2014-05-01T15:43:20.958Z</time>
      </trkpt>
      <trkpt lat="46.39786" lon="5.69119">
        <ele>755.8</ele>
        <time>2014-05-01T15:43:23.985Z</time>
      </trkpt>
      <trkpt lat="46.39794" lon="5.69114">
        <ele>746.3</ele>
        <time>2014-05-01T15:43:26.960Z</time>
      </trkpt>
      <trkpt lat="46.39804" lon="5.69113">
        <ele>744</ele>
        <time>2014-05-01T15:43:30.059Z</time>
      </trkpt>
      <trkpt lat="46.39805" lon="5.69114">
        <ele>743.6</ele>
        <time>2014-05-01T15:43:33.000Z</time>
      </trkpt>
      <trkpt lat="46.39806" lon="5.69116">
        <ele>742.6</ele>
        <time>2014-05-01T15:43:35.960Z</time>
      </trkpt>
      <trkpt lat="46.39806" lon="5.69116">
        <ele>741.8</ele>
        <time>2014-05-01T15:43:39.001Z</time>
      </trkpt>
      <trkpt lat="46.39809" lon="5.69119">
        <ele>741</ele>
        <time>2014-05-01T15:43:42.004Z</time>
      </trkpt>
      <trkpt lat="46.39814" lon="5.69125">
        <ele>740.6</ele>
        <time>2014-05-01T15:43:44.960Z</time>
      </trkpt>
      <trkpt lat="46.39817" lon="5.69132">
        <ele>738.9</ele>
        <time>2014-05-01T15:43:47.970Z</time>
      </trkpt>
      <trkpt lat="46.39819" lon="5.69139">
        <ele>737.3</ele>
        <time>2014-05-01T15:43:51.006Z</time>
      </trkpt>
      <trkpt lat="46.39819" lon="5.69147">
        <ele>733.2</ele>
        <time>2014-05-01T15:43:53.970Z</time>
      </trkpt>
      <trkpt lat="46.39815" lon="5.69154">
        <ele>736.8</ele>
        <time>2014-05-01T15:43:56.957Z</time>
      </trkpt>
      <trkpt lat="46.39814" lon="5.69159">
        <ele>735</ele>
        <time>2014-05-01T15:43:59.964Z</time>
      </trkpt>
      <trkpt lat="46.39817" lon="5.69166">
        <ele>732.9</ele>
        <time>2014-05-01T15:44:02.986Z</time>
      </trkpt>
      <trkpt lat="46.3982" lon="5.69174">
        <ele>730.9</ele>
        <time>2014-05-01T15:44:05.959Z</time>
      </trkpt>
      <trkpt lat="46.3982" lon="5.6918">
        <ele>729.7</ele>
        <time>2014-05-01T15:44:08.958Z</time>
      </trkpt>
      <trkpt lat="46.39818" lon="5.69184">
        <ele>729.6</ele>
        <time>2014-05-01T15:44:11.986Z</time>
      </trkpt>
      <trkpt lat="46.39817" lon="5.69188">
        <ele>731.3</ele>
        <time>2014-05-01T15:44:14.966Z</time>
      </trkpt>
      <trkpt lat="46.39817" lon="5.69193">
        <ele>734.5</ele>
        <time>2014-05-01T15:44:18.050Z</time>
      </trkpt>
      <trkpt lat="46.39817" lon="5.69197">
        <ele>733.1</ele>
        <time>2014-05-01T15:44:20.997Z</time>
      </trkpt>
      <trkpt lat="46.39819" lon="5.69202">
        <ele>731.8</ele>
        <time>2014-05-01T15:44:23.958Z</time>
      </trkpt>
      <trkpt lat="46.39822" lon="5.69208">
        <ele>729.4</ele>
        <time>2014-05-01T15:44:26.959Z</time>
      </trkpt>
      <trkpt lat="46.39824" lon="5.69212">
        <ele>731.2</ele>
        <time>2014-05-01T15:44:30.011Z</time>
      </trkpt>
      <trkpt lat="46.39826" lon="5.69217">
        <ele>727.8</ele>
        <time>2014-05-01T15:44:32.963Z</time>
      </trkpt>
      <trkpt lat="46.39827" lon="5.69223">
        <ele>727.8</ele>
        <time>2014-05-01T15:44:35.997Z</time>
      </trkpt>
      <trkpt lat="46.39828" lon="5.69227">
        <ele>728.7</ele>
        <time>2014-05-01T15:44:38.997Z</time>
      </trkpt>
      <trkpt lat="46.39828" lon="5.69231">
        <ele>732.1</ele>
        <time>2014-05-01T15:44:41.968Z</time>
      </trkpt>
      <trkpt lat="46.39828" lon="5.69235">
        <ele>731.6</ele>
        <time>2014-05-01T15:44:44.981Z</time>
      </trkpt>
      <trkpt lat="46.39828" lon="5.69237">
        <ele>731.4</ele>
        <time>2014-05-01T15:44:48.026Z</time>
      </trkpt>
      <trkpt lat="46.3983" lon="5.6924">
        <ele>731.1</ele>
        <time>2014-05-01T15:44:50.994Z</time>
      </trkpt>
      <trkpt lat="46.39831" lon="5.69243">
        <ele>735.3</ele>
        <time>2014-05-01T15:44:53.960Z</time>
      </trkpt>
      <trkpt lat="46.39833" lon="5.69246">
        <ele>729.6</ele>
        <time>2014-05-01T15:44:56.978Z</time>
      </trkpt>
      <trkpt lat="46.39836" lon="5.69251">
        <ele>731.8</ele>
        <time>2014-05-01T15:44:59.986Z</time>
      </trkpt>
      <trkpt lat="46.39837" lon="5.69255">
        <ele>733.9</ele>
        <time>2014-05-01T15:45:02.963Z</time>
      </trkpt>
      <trkpt lat="46.39838" lon="5.69259">
        <ele>736.6</ele>
        <time>2014-05-01T15:45:06.043Z</time>
      </trkpt>
      <trkpt lat="46.3984" lon="5.69264">
        <ele>741.6</ele>
        <time>2014-05-01T15:45:09.006Z</time>
      </trkpt>
      <trkpt lat="46.39842" lon="5.69267">
        <ele>745</ele>
        <time>2014-05-01T15:45:11.960Z</time>
      </trkpt>
      <trkpt lat="46.39844" lon="5.6927">
        <ele>749.2</ele>
        <time>2014-05-01T15:45:14.958Z</time>
      </trkpt>
      <trkpt lat="46.39844" lon="5.69275">
        <ele>751.9</ele>
        <time>2014-05-01T15:45:17.989Z</time>
      </trkpt>
      <trkpt lat="46.39845" lon="5.69278">
        <ele>752.6</ele>
        <time>2014-05-01T15:45:20.963Z</time>
      </trkpt>
      <trkpt lat="46.39846" lon="5.69279">
        <ele>758.1</ele>
        <time>2014-05-01T15:45:23.994Z</time>
      </trkpt>
      <trkpt lat="46.39848" lon="5.69283">
        <ele>758.7</ele>
        <time>2014-05-01T15:45:27.006Z</time>
      </trkpt>
      <trkpt lat="46.39849" lon="5.69287">
        <ele>758.8</ele>
        <time>2014-05-01T15:45:29.978Z</time>
      </trkpt>
      <trkpt lat="46.39849" lon="5.6929">
        <ele>761.8</ele>
        <time>2014-05-01T15:45:32.964Z</time>
      </trkpt>
      <trkpt lat="46.39852" lon="5.69294">
        <ele>762.1</ele>
        <time>2014-05-01T15:45:36.047Z</time>
      </trkpt>
      <trkpt lat="46.39854" lon="5.69301">
        <ele>762</ele>
        <time>2014-05-01T15:45:38.990Z</time>
      </trkpt>
      <trkpt lat="46.39857" lon="5.69309">
        <ele>763</ele>
        <time>2014-05-01T15:45:41.960Z</time>
      </trkpt>
      <trkpt lat="46.39857" lon="5.69317">
        <ele>768</ele>
        <time>2014-05-01T15:45:45.049Z</time>
      </trkpt>
      <trkpt lat="46.39857" lon="5.69324">
        <ele>770.7</ele>
        <time>2014-05-01T15:45:47.988Z</time>
      </trkpt>
      <trkpt lat="46.39862" lon="5.69325">
        <ele>769.5</ele>
        <time>2014-05-01T15:45:50.966Z</time>
      </trkpt>
      <trkpt lat="46.39867" lon="5.69321">
        <ele>770.4</ele>
        <time>2014-05-01T15:45:54.040Z</time>
      </trkpt>
      <trkpt lat="46.39872" lon="5.69317">
        <ele>771.5</ele>
        <time>2014-05-01T15:45:56.998Z</time>
      </trkpt>
      <trkpt lat="46.39877" lon="5.6932">
        <ele>772</ele>
        <time>2014-05-01T15:45:59.962Z</time>
      </trkpt>
      <trkpt lat="46.39883" lon="5.69325">
        <ele>769.9</ele>
        <time>2014-05-01T15:46:03.015Z</time>
      </trkpt>
      <trkpt lat="46.39888" lon="5.69327">
        <ele>771.7</ele>
        <time>2014-05-01T15:46:06.018Z</time>
      </trkpt>
      <trkpt lat="46.39894" lon="5.69328">
        <ele>772</ele>
        <time>2014-05-01T15:46:08.967Z</time>
      </trkpt>
      <trkpt lat="46.399" lon="5.6933">
        <ele>773.6</ele>
        <time>2014-05-01T15:46:11.995Z</time>
      </trkpt>
      <trkpt lat="46.39905" lon="5.69332">
        <ele>775.1</ele>
        <time>2014-05-01T15:46:15.003Z</time>
      </trkpt>
      <trkpt lat="46.39909" lon="5.69336">
        <ele>773.7</ele>
        <time>2014-05-01T15:46:17.968Z</time>
      </trkpt>
      <trkpt lat="46.39912" lon="5.69338">
        <ele>772.6</ele>
        <time>2014-05-01T15:46:20.958Z</time>
      </trkpt>
      <trkpt lat="46.39917" lon="5.69339">
        <ele>771.9</ele>
        <time>2014-05-01T15:46:23.964Z</time>
      </trkpt>
      <trkpt lat="46.39921" lon="5.69337">
        <ele>773.1</ele>
        <time>2014-05-01T15:46:26.988Z</time>
      </trkpt>
      <trkpt lat="46.39925" lon="5.69336">
        <ele>772</ele>
        <time>2014-05-01T15:46:29.960Z</time>
      </trkpt>
      <trkpt lat="46.3993" lon="5.69338">
        <ele>772.9</ele>
        <time>2014-05-01T15:46:32.999Z</time>
      </trkpt>
      <trkpt lat="46.39934" lon="5.69341">
        <ele>772.6</ele>
        <time>2014-05-01T15:46:35.996Z</time>
      </trkpt>
      <trkpt lat="46.39941" lon="5.69343">
        <ele>771.6</ele>
        <time>2014-05-01T15:46:38.970Z</time>
      </trkpt>
      <trkpt lat="46.39946" lon="5.69345">
        <ele>773.2</ele>
        <time>2014-05-01T15:46:41.959Z</time>
      </trkpt>
      <trkpt lat="46.39951" lon="5.69347">
        <ele>778.4</ele>
        <time>2014-05-01T15:46:44.978Z</time>
      </trkpt>
      <trkpt lat="46.39954" lon="5.69351">
        <ele>779.2</ele>
        <time>2014-05-01T15:46:47.970Z</time>
      </trkpt>
      <trkpt lat="46.39958" lon="5.69354">
        <ele>779.5</ele>
        <time>2014-05-01T15:46:50.959Z</time>
      </trkpt>
      <trkpt lat="46.39964" lon="5.69356">
        <ele>780.3</ele>
        <time>2014-05-01T15:46:53.959Z</time>
      </trkpt>
      <trkpt lat="46.39974" lon="5.69359">
        <ele>778.7</ele>
        <time>2014-05-01T15:46:56.959Z</time>
      </trkpt>
      <trkpt lat="46.39984" lon="5.6936">
        <ele>777.8</ele>
        <time>2014-05-01T15:46:59.959Z</time>
      </trkpt>
      <trkpt lat="46.39993" lon="5.69362">
        <ele>776.5</ele>
        <time>2014-05-01T15:47:02.968Z</time>
      </trkpt>
      <trkpt lat="46.40002" lon="5.69365">
        <ele>774.8</ele>
        <time>2014-05-01T15:47:05.966Z</time>
      </trkpt>
      <trkpt lat="46.4001" lon="5.69369">
        <ele>774.3</ele>
        <time>2014-05-01T15:47:08.959Z</time>
      </trkpt>
      <trkpt lat="46.40017" lon="5.69371">
        <ele>774.8</ele>
        <time>2014-05-01T15:47:11.958Z</time>
      </trkpt>
      <trkpt lat="46.40024" lon="5.69372">
        <ele>775.7</ele>
        <time>2014-05-01T15:47:14.965Z</time>
      </trkpt>
      <trkpt lat="46.4003" lon="5.69374">
        <ele>774.7</ele>
        <time>2014-05-01T15:47:17.957Z</time>
      </trkpt>
      <trkpt lat="46.40037" lon="5.69376">
        <ele>774.8</ele>
        <time>2014-05-01T15:47:20.959Z</time>
      </trkpt>
      <trkpt lat="46.40043" lon="5.69379">
        <ele>772.6</ele>
        <time>2014-05-01T15:47:23.953Z</time>
      </trkpt>
      <trkpt lat="46.4005" lon="5.69382">
        <ele>768.3</ele>
        <time>2014-05-01T15:47:26.956Z</time>
      </trkpt>
      <trkpt lat="46.40058" lon="5.69383">
        <ele>767.5</ele>
        <time>2014-05-01T15:47:29.957Z</time>
      </trkpt>
      <trkpt lat="46.40064" lon="5.69383">
        <ele>767.6</ele>
        <time>2014-05-01T15:47:32.957Z</time>
      </trkpt>
      <trkpt lat="46.4007" lon="5.69382">
        <ele>766.5</ele>
        <time>2014-05-01T15:47:35.955Z</time>
      </trkpt>
      <trkpt lat="46.40077" lon="5.69381">
        <ele>766.5</ele>
        <time>2014-05-01T15:47:38.955Z</time>
      </trkpt>
      <trkpt lat="46.40083" lon="5.69381">
        <ele>765.8</ele>
        <time>2014-05-01T15:47:41.957Z</time>
      </trkpt>
      <trkpt lat="46.40091" lon="5.69383">
        <ele>761.8</ele>
        <time>2014-05-01T15:47:44.957Z</time>
      </trkpt>
      <trkpt lat="46.40098" lon="5.69384">
        <ele>757.4</ele>
        <time>2014-05-01T15:47:48.015Z</time>
      </trkpt>
      <trkpt lat="46.40105" lon="5.69383">
        <ele>752.6</ele>
        <time>2014-05-01T15:47:51.017Z</time>
      </trkpt>
      <trkpt lat="46.40113" lon="5.69382">
        <ele>754.6</ele>
        <time>2014-05-01T15:47:54.017Z</time>
      </trkpt>
      <trkpt lat="46.4012" lon="5.69381">
        <ele>758.7</ele>
        <time>2014-05-01T15:47:57.017Z</time>
      </trkpt>
      <trkpt lat="46.40126" lon="5.69381">
        <ele>760.1</ele>
        <time>2014-05-01T15:48:00.017Z</time>
      </trkpt>
      <trkpt lat="46.40128" lon="5.69383">
        <ele>762.1</ele>
        <time>2014-05-01T15:48:03.016Z</time>
      </trkpt>
      <trkpt lat="46.40132" lon="5.69387">
        <ele>763.1</ele>
        <time>2014-05-01T15:48:06.017Z</time>
      </trkpt>
      <trkpt lat="46.40136" lon="5.69388">
        <ele>763.4</ele>
        <time>2014-05-01T15:48:09.016Z</time>
      </trkpt>
      <trkpt lat="46.40142" lon="5.6939">
        <ele>765.7</ele>
        <time>2014-05-01T15:48:12.018Z</time>
      </trkpt>
      <trkpt lat="46.40148" lon="5.69393">
        <ele>763.8</ele>
        <time>2014-05-01T15:48:15.017Z</time>
      </trkpt>
      <trkpt lat="46.40156" lon="5.69397">
        <ele>759.1</ele>
        <time>2014-05-01T15:48:18.017Z</time>
      </trkpt>
      <trkpt lat="46.40162" lon="5.694">
        <ele>761.5</ele>
        <time>2014-05-01T15:48:21.020Z</time>
      </trkpt>
      <trkpt lat="46.40168" lon="5.69403">
        <ele>760.8</ele>
        <time>2014-05-01T15:48:24.017Z</time>
      </trkpt>
      <trkpt lat="46.40173" lon="5.69404">
        <ele>760.8</ele>
        <time>2014-05-01T15:48:27.016Z</time>
      </trkpt>
      <trkpt lat="46.40176" lon="5.69405">
        <ele>761</ele>
        <time>2014-05-01T15:48:30.016Z</time>
      </trkpt>
      <trkpt lat="46.40179" lon="5.6941">
        <ele>759.5</ele>
        <time>2014-05-01T15:48:33.016Z</time>
      </trkpt>
      <trkpt lat="46.40184" lon="5.69414">
        <ele>758.7</ele>
        <time>2014-05-01T15:48:36.016Z</time>
      </trkpt>
      <trkpt lat="46.40188" lon="5.69416">
        <ele>759</ele>
        <time>2014-05-01T15:48:39.017Z</time>
      </trkpt>
      <trkpt lat="46.40193" lon="5.69418">
        <ele>757.3</ele>
        <time>2014-05-01T15:48:42.016Z</time>
      </trkpt>
      <trkpt lat="46.40197" lon="5.69421">
        <ele>758</ele>
        <time>2014-05-01T15:48:45.016Z</time>
      </trkpt>
      <trkpt lat="46.40201" lon="5.69426">
        <ele>759.8</ele>
        <time>2014-05-01T15:48:48.016Z</time>
      </trkpt>
      <trkpt lat="46.40205" lon="5.69434">
        <ele>757.1</ele>
        <time>2014-05-01T15:48:51.016Z</time>
      </trkpt>
      <trkpt lat="46.40212" lon="5.6944">
        <ele>757.8</ele>
        <time>2014-05-01T15:48:54.016Z</time>
      </trkpt>
      <trkpt lat="46.40219" lon="5.69442">
        <ele>754.9</ele>
        <time>2014-05-01T15:48:57.017Z</time>
      </trkpt>
      <trkpt lat="46.40226" lon="5.6944">
        <ele>754.6</ele>
        <time>2014-05-01T15:49:00.016Z</time>
      </trkpt>
      <trkpt lat="46.40231" lon="5.69442">
        <ele>753.9</ele>
        <time>2014-05-01T15:49:03.015Z</time>
      </trkpt>
      <trkpt lat="46.40234" lon="5.69446">
        <ele>753.6</ele>
        <time>2014-05-01T15:49:06.021Z</time>
      </trkpt>
      <trkpt lat="46.40235" lon="5.69449">
        <ele>754</ele>
        <time>2014-05-01T15:49:09.015Z</time>
      </trkpt>
      <trkpt lat="46.40237" lon="5.69455">
        <ele>757.2</ele>
        <time>2014-05-01T15:49:12.016Z</time>
      </trkpt>
      <trkpt lat="46.40238" lon="5.69462">
        <ele>759.6</ele>
        <time>2014-05-01T15:49:15.016Z</time>
      </trkpt>
      <trkpt lat="46.40239" lon="5.69472">
        <ele>761.4</ele>
        <time>2014-05-01T15:49:18.016Z</time>
      </trkpt>
      <trkpt lat="46.40242" lon="5.6948">
        <ele>762</ele>
        <time>2014-05-01T15:49:21.015Z</time>
      </trkpt>
      <trkpt lat="46.40245" lon="5.69485">
        <ele>762.2</ele>
        <time>2014-05-01T15:49:24.017Z</time>
      </trkpt>
      <trkpt lat="46.4025" lon="5.69491">
        <ele>761.5</ele>
        <time>2014-05-01T15:49:27.016Z</time>
      </trkpt>
      <trkpt lat="46.40259" lon="5.69499">
        <ele>758.2</ele>
        <time>2014-05-01T15:49:30.016Z</time>
      </trkpt>
      <trkpt lat="46.40264" lon="5.69504">
        <ele>756.4</ele>
        <time>2014-05-01T15:49:33.016Z</time>
      </trkpt>
      <trkpt lat="46.40269" lon="5.69502">
        <ele>754.4</ele>
        <time>2014-05-01T15:49:36.016Z</time>
      </trkpt>
      <trkpt lat="46.40274" lon="5.69497">
        <ele>754.1</ele>
        <time>2014-05-01T15:49:39.015Z</time>
      </trkpt>
      <trkpt lat="46.40281" lon="5.69492">
        <ele>753.7</ele>
        <time>2014-05-01T15:49:42.015Z</time>
      </trkpt>
      <trkpt lat="46.40286" lon="5.6949">
        <ele>754.9</ele>
        <time>2014-05-01T15:49:45.015Z</time>
      </trkpt>
      <trkpt lat="46.4029" lon="5.6949">
        <ele>754</ele>
        <time>2014-05-01T15:49:48.015Z</time>
      </trkpt>
      <trkpt lat="46.40295" lon="5.69489">
        <ele>753.8</ele>
        <time>2014-05-01T15:49:51.015Z</time>
      </trkpt>
      <trkpt lat="46.40301" lon="5.69486">
        <ele>751.4</ele>
        <time>2014-05-01T15:49:54.015Z</time>
      </trkpt>
      <trkpt lat="46.40308" lon="5.69481">
        <ele>751</ele>
        <time>2014-05-01T15:49:57.015Z</time>
      </trkpt>
      <trkpt lat="46.40314" lon="5.69474">
        <ele>752.2</ele>
        <time>2014-05-01T15:50:00.016Z</time>
      </trkpt>
      <trkpt lat="46.40323" lon="5.69471">
        <ele>753.7</ele>
        <time>2014-05-01T15:50:03.031Z</time>
      </trkpt>
      <trkpt lat="46.40335" lon="5.69471">
        <ele>755</ele>
        <time>2014-05-01T15:50:06.019Z</time>
      </trkpt>
      <trkpt lat="46.40342" lon="5.69469">
        <ele>753.8</ele>
        <time>2014-05-01T15:50:09.017Z</time>
      </trkpt>
      <trkpt lat="46.40349" lon="5.69465">
        <ele>753.4</ele>
        <time>2014-05-01T15:50:12.017Z</time>
      </trkpt>
      <trkpt lat="46.40353" lon="5.69458">
        <ele>751.3</ele>
        <time>2014-05-01T15:50:15.015Z</time>
      </trkpt>
      <trkpt lat="46.40356" lon="5.69447">
        <ele>749.1</ele>
        <time>2014-05-01T15:50:18.017Z</time>
      </trkpt>
      <trkpt lat="46.40359" lon="5.69436">
        <ele>748.6</ele>
        <time>2014-05-01T15:50:21.017Z</time>
      </trkpt>
      <trkpt lat="46.40362" lon="5.69429">
        <ele>749.2</ele>
        <time>2014-05-01T15:50:24.017Z</time>
      </trkpt>
      <trkpt lat="46.40365" lon="5.69424">
        <ele>749.7</ele>
        <time>2014-05-01T15:50:27.017Z</time>
      </trkpt>
      <trkpt lat="46.4037" lon="5.6942">
        <ele>751</ele>
        <time>2014-05-01T15:50:30.028Z</time>
      </trkpt>
      <trkpt lat="46.40375" lon="5.69419">
        <ele>751.1</ele>
        <time>2014-05-01T15:50:33.049Z</time>
      </trkpt>
      <trkpt lat="46.4038" lon="5.69418">
        <ele>751.3</ele>
        <time>2014-05-01T15:50:36.024Z</time>
      </trkpt>
      <trkpt lat="46.40386" lon="5.69418">
        <ele>751.2</ele>
        <time>2014-05-01T15:50:39.018Z</time>
      </trkpt>
      <trkpt lat="46.4039" lon="5.69415">
        <ele>750.7</ele>
        <time>2014-05-01T15:50:42.019Z</time>
      </trkpt>
      <trkpt lat="46.40398" lon="5.69415">
        <ele>751</ele>
        <time>2014-05-01T15:50:45.089Z</time>
      </trkpt>
      <trkpt lat="46.40407" lon="5.69418">
        <ele>751.2</ele>
        <time>2014-05-01T15:50:48.032Z</time>
      </trkpt>
      <trkpt lat="46.40414" lon="5.69419">
        <ele>750.4</ele>
        <time>2014-05-01T15:50:51.018Z</time>
      </trkpt>
      <trkpt lat="46.4042" lon="5.6942">
        <ele>750.2</ele>
        <time>2014-05-01T15:50:54.017Z</time>
      </trkpt>
      <trkpt lat="46.40426" lon="5.69421">
        <ele>749.1</ele>
        <time>2014-05-01T15:50:57.071Z</time>
      </trkpt>
      <trkpt lat="46.40432" lon="5.69423">
        <ele>748.3</ele>
        <time>2014-05-01T15:51:00.023Z</time>
      </trkpt>
      <trkpt lat="46.40438" lon="5.69427">
        <ele>747.8</ele>
        <time>2014-05-01T15:51:03.035Z</time>
      </trkpt>
      <trkpt lat="46.40446" lon="5.69429">
        <ele>745.7</ele>
        <time>2014-05-01T15:51:06.018Z</time>
      </trkpt>
      <trkpt lat="46.40452" lon="5.69432">
        <ele>746.8</ele>
        <time>2014-05-01T15:51:09.017Z</time>
      </trkpt>
      <trkpt lat="46.40456" lon="5.69437">
        <ele>744.2</ele>
        <time>2014-05-01T15:51:12.020Z</time>
      </trkpt>
      <trkpt lat="46.40459" lon="5.69441">
        <ele>746.6</ele>
        <time>2014-05-01T15:51:15.018Z</time>
      </trkpt>
      <trkpt lat="46.40462" lon="5.69442">
        <ele>746.1</ele>
        <time>2014-05-01T15:51:18.019Z</time>
      </trkpt>
      <trkpt lat="46.40467" lon="5.69444">
        <ele>745.8</ele>
        <time>2014-05-01T15:51:21.024Z</time>
      </trkpt>
      <trkpt lat="46.40472" lon="5.69444">
        <ele>744.7</ele>
        <time>2014-05-01T15:51:24.024Z</time>
      </trkpt>
      <trkpt lat="46.40476" lon="5.69445">
        <ele>744.2</ele>
        <time>2014-05-01T15:51:27.027Z</time>
      </trkpt>
      <trkpt lat="46.40478" lon="5.69447">
        <ele>742.1</ele>
        <time>2014-05-01T15:51:30.018Z</time>
      </trkpt>
      <trkpt lat="46.4048" lon="5.69453">
        <ele>740.4</ele>
        <time>2014-05-01T15:51:33.023Z</time>
      </trkpt>
      <trkpt lat="46.4048" lon="5.69459">
        <ele>741.1</ele>
        <time>2014-05-01T15:51:36.023Z</time>
      </trkpt>
      <trkpt lat="46.4048" lon="5.69464">
        <ele>739.5</ele>
        <time>2014-05-01T15:51:39.019Z</time>
      </trkpt>
      <trkpt lat="46.4048" lon="5.69469">
        <ele>740.5</ele>
        <time>2014-05-01T15:51:42.023Z</time>
      </trkpt>
      <trkpt lat="46.40483" lon="5.69477">
        <ele>741.1</ele>
        <time>2014-05-01T15:51:45.018Z</time>
      </trkpt>
      <trkpt lat="46.40484" lon="5.69482">
        <ele>741.1</ele>
        <time>2014-05-01T15:51:48.024Z</time>
      </trkpt>
      <trkpt lat="46.40484" lon="5.69485">
        <ele>740.6</ele>
        <time>2014-05-01T15:51:51.033Z</time>
      </trkpt>
      <trkpt lat="46.40484" lon="5.69486">
        <ele>740.6</ele>
        <time>2014-05-01T15:51:54.032Z</time>
      </trkpt>
      <trkpt lat="46.40483" lon="5.69488">
        <ele>740.7</ele>
        <time>2014-05-01T15:51:57.016Z</time>
      </trkpt>
      <trkpt lat="46.40483" lon="5.69493">
        <ele>740.9</ele>
        <time>2014-05-01T15:52:00.045Z</time>
      </trkpt>
      <trkpt lat="46.40486" lon="5.69502">
        <ele>742.3</ele>
        <time>2014-05-01T15:52:03.065Z</time>
      </trkpt>
      <trkpt lat="46.40488" lon="5.69512">
        <ele>745.1</ele>
        <time>2014-05-01T15:52:06.019Z</time>
      </trkpt>
      <trkpt lat="46.40489" lon="5.69523">
        <ele>747</ele>
        <time>2014-05-01T15:52:09.053Z</time>
      </trkpt>
      <trkpt lat="46.4049" lon="5.69532">
        <ele>747.4</ele>
        <time>2014-05-01T15:52:12.048Z</time>
      </trkpt>
      <trkpt lat="46.40491" lon="5.69541">
        <ele>748.1</ele>
        <time>2014-05-01T15:52:15.034Z</time>
      </trkpt>
      <trkpt lat="46.40492" lon="5.69548">
        <ele>748.8</ele>
        <time>2014-05-01T15:52:18.024Z</time>
      </trkpt>
      <trkpt lat="46.40493" lon="5.69554">
        <ele>749.7</ele>
        <time>2014-05-01T15:52:21.053Z</time>
      </trkpt>
      <trkpt lat="46.40496" lon="5.69562">
        <ele>750.3</ele>
        <time>2014-05-01T15:52:24.018Z</time>
      </trkpt>
      <trkpt lat="46.40496" lon="5.69568">
        <ele>750.5</ele>
        <time>2014-05-01T15:52:27.017Z</time>
      </trkpt>
      <trkpt lat="46.40495" lon="5.69574">
        <ele>750.4</ele>
        <time>2014-05-01T15:52:30.004Z</time>
      </trkpt>
      <trkpt lat="46.40492" lon="5.69579">
        <ele>755</ele>
        <time>2014-05-01T15:52:33.016Z</time>
      </trkpt>
      <trkpt lat="46.40489" lon="5.69586">
        <ele>754.4</ele>
        <time>2014-05-01T15:52:36.016Z</time>
      </trkpt>
      <trkpt lat="46.40488" lon="5.69593">
        <ele>755.8</ele>
        <time>2014-05-01T15:52:39.016Z</time>
      </trkpt>
      <trkpt lat="46.4049" lon="5.696">
        <ele>756.2</ele>
        <time>2014-05-01T15:52:42.016Z</time>
      </trkpt>
      <trkpt lat="46.40493" lon="5.69608">
        <ele>756</ele>
        <time>2014-05-01T15:52:45.017Z</time>
      </trkpt>
      <trkpt lat="46.40494" lon="5.69616">
        <ele>755.8</ele>
        <time>2014-05-01T15:52:48.055Z</time>
      </trkpt>
      <trkpt lat="46.40494" lon="5.69622">
        <ele>755.2</ele>
        <time>2014-05-01T15:52:51.049Z</time>
      </trkpt>
      <trkpt lat="46.40492" lon="5.69626">
        <ele>755.1</ele>
        <time>2014-05-01T15:52:54.019Z</time>
      </trkpt>
      <trkpt lat="46.40492" lon="5.6963">
        <ele>754.1</ele>
        <time>2014-05-01T15:52:57.128Z</time>
      </trkpt>
      <trkpt lat="46.40491" lon="5.69634">
        <ele>753</ele>
        <time>2014-05-01T15:53:00.050Z</time>
      </trkpt>
      <trkpt lat="46.40491" lon="5.69636">
        <ele>751.1</ele>
        <time>2014-05-01T15:53:03.030Z</time>
      </trkpt>
      <trkpt lat="46.4049" lon="5.69637">
        <ele>750.1</ele>
        <time>2014-05-01T15:53:06.044Z</time>
      </trkpt>
      <trkpt lat="46.40491" lon="5.69637">
        <ele>750</ele>
        <time>2014-05-01T15:53:09.070Z</time>
      </trkpt>
      <trkpt lat="46.40491" lon="5.69637">
        <ele>750.1</ele>
        <time>2014-05-01T15:53:12.029Z</time>
      </trkpt>
      <trkpt lat="46.4049" lon="5.69637">
        <ele>750.2</ele>
        <time>2014-05-01T15:53:15.073Z</time>
      </trkpt>
      <trkpt lat="46.40486" lon="5.69636">
        <ele>749.7</ele>
        <time>2014-05-01T15:53:18.094Z</time>
      </trkpt>
      <trkpt lat="46.40477" lon="5.69637">
        <ele>750.3</ele>
        <time>2014-05-01T15:53:21.033Z</time>
      </trkpt>
      <trkpt lat="46.40471" lon="5.69639">
        <ele>750.8</ele>
        <time>2014-05-01T15:53:24.047Z</time>
      </trkpt>
      <trkpt lat="46.40465" lon="5.69641">
        <ele>751.2</ele>
        <time>2014-05-01T15:53:27.074Z</time>
      </trkpt>
      <trkpt lat="46.40458" lon="5.69642">
        <ele>751.1</ele>
        <time>2014-05-01T15:53:30.032Z</time>
      </trkpt>
      <trkpt lat="46.40454" lon="5.6964">
        <ele>750.5</ele>
        <time>2014-05-01T15:53:33.020Z</time>
      </trkpt>
      <trkpt lat="46.40447" lon="5.69634">
        <ele>749.3</ele>
        <time>2014-05-01T15:53:36.066Z</time>
      </trkpt>
      <trkpt lat="46.40444" lon="5.69633">
        <ele>749.3</ele>
        <time>2014-05-01T15:53:39.050Z</time>
      </trkpt>
      <trkpt lat="46.40441" lon="5.69632">
        <ele>748.7</ele>
        <time>2014-05-01T15:53:42.019Z</time>
      </trkpt>
      <trkpt lat="46.40439" lon="5.69633">
        <ele>748.6</ele>
        <time>2014-05-01T15:53:45.018Z</time>
      </trkpt>
      <trkpt lat="46.40438" lon="5.69633">
        <ele>748.5</ele>
        <time>2014-05-01T15:53:48.046Z</time>
      </trkpt>
      <trkpt lat="46.40438" lon="5.69633">
        <ele>748.6</ele>
        <time>2014-05-01T15:53:51.025Z</time>
      </trkpt>
      <trkpt lat="46.40438" lon="5.69634">
        <ele>748.7</ele>
        <time>2014-05-01T15:53:54.024Z</time>
      </trkpt>
      <trkpt lat="46.40432" lon="5.69635">
        <ele>747.7</ele>
        <time>2014-05-01T15:53:57.047Z</time>
      </trkpt>
      <trkpt lat="46.40422" lon="5.69638">
        <ele>746.5</ele>
        <time>2014-05-01T15:54:00.019Z</time>
      </trkpt>
      <trkpt lat="46.40414" lon="5.69638">
        <ele>746.4</ele>
        <time>2014-05-01T15:54:03.060Z</time>
      </trkpt>
      <trkpt lat="46.40406" lon="5.69637">
        <ele>746.2</ele>
        <time>2014-05-01T15:54:06.062Z</time>
      </trkpt>
      <trkpt lat="46.40395" lon="5.69639">
        <ele>747.1</ele>
        <time>2014-05-01T15:54:09.025Z</time>
      </trkpt>
      <trkpt lat="46.40386" lon="5.69639">
        <ele>746.5</ele>
        <time>2014-05-01T15:54:12.034Z</time>
      </trkpt>
      <trkpt lat="46.40378" lon="5.69639">
        <ele>747.1</ele>
        <time>2014-05-01T15:54:15.061Z</time>
      </trkpt>
      <trkpt lat="46.40371" lon="5.69639">
        <ele>748</ele>
        <time>2014-05-01T15:54:18.023Z</time>
      </trkpt>
      <trkpt lat="46.40365" lon="5.6964">
        <ele>748.2</ele>
        <time>2014-05-01T15:54:21.018Z</time>
      </trkpt>
      <trkpt lat="46.40358" lon="5.69639">
        <ele>749.1</ele>
        <time>2014-05-01T15:54:24.032Z</time>
      </trkpt>
      <trkpt lat="46.40352" lon="5.69639">
        <ele>748.5</ele>
        <time>2014-05-01T15:54:27.063Z</time>
      </trkpt>
      <trkpt lat="46.40342" lon="5.69639">
        <ele>748.5</ele>
        <time>2014-05-01T15:54:30.018Z</time>
      </trkpt>
      <trkpt lat="46.40339" lon="5.6964">
        <ele>747.9</ele>
        <time>2014-05-01T15:54:33.107Z</time>
      </trkpt>
      <trkpt lat="46.40336" lon="5.6964">
        <ele>748.1</ele>
        <time>2014-05-01T15:54:36.052Z</time>
      </trkpt>
      <trkpt lat="46.40335" lon="5.6964">
        <ele>747.8</ele>
        <time>2014-05-01T15:54:39.025Z</time>
      </trkpt>
      <trkpt lat="46.40334" lon="5.6964">
        <ele>747</ele>
        <time>2014-05-01T15:54:42.107Z</time>
      </trkpt>
      <trkpt lat="46.40333" lon="5.6964">
        <ele>747.1</ele>
        <time>2014-05-01T15:54:45.053Z</time>
      </trkpt>
      <trkpt lat="46.40333" lon="5.6964">
        <ele>747.2</ele>
        <time>2014-05-01T15:54:48.022Z</time>
      </trkpt>
      <trkpt lat="46.40332" lon="5.69643">
        <ele>748.6</ele>
        <time>2014-05-01T15:54:51.060Z</time>
      </trkpt>
      <trkpt lat="46.40324" lon="5.69648">
        <ele>747.2</ele>
        <time>2014-05-01T15:54:54.084Z</time>
      </trkpt>
      <trkpt lat="46.40315" lon="5.69653">
        <ele>748.1</ele>
        <time>2014-05-01T15:54:57.020Z</time>
      </trkpt>
      <trkpt lat="46.40307" lon="5.69656">
        <ele>748.6</ele>
        <time>2014-05-01T15:55:00.039Z</time>
      </trkpt>
      <trkpt lat="46.40297" lon="5.6966">
        <ele>752.4</ele>
        <time>2014-05-01T15:55:03.060Z</time>
      </trkpt>
      <trkpt lat="46.40274" lon="5.69668">
        <ele>755.7</ele>
        <time>2014-05-01T15:55:06.026Z</time>
      </trkpt>
      <trkpt lat="46.40271" lon="5.69672">
        <ele>757.6</ele>
        <time>2014-05-01T15:55:09.019Z</time>
      </trkpt>
      <trkpt lat="46.40264" lon="5.69678">
        <ele>756.4</ele>
        <time>2014-05-01T15:55:12.029Z</time>
      </trkpt>
      <trkpt lat="46.40259" lon="5.69686">
        <ele>753.6</ele>
        <time>2014-05-01T15:55:15.054Z</time>
      </trkpt>
      <trkpt lat="46.40246" lon="5.69696">
        <ele>756.1</ele>
        <time>2014-05-01T15:55:18.017Z</time>
      </trkpt>
      <trkpt lat="46.4024" lon="5.69699">
        <ele>756.2</ele>
        <time>2014-05-01T15:55:21.018Z</time>
      </trkpt>
      <trkpt lat="46.40234" lon="5.69705">
        <ele>755</ele>
        <time>2014-05-01T15:55:24.018Z</time>
      </trkpt>
      <trkpt lat="46.40229" lon="5.69713">
        <ele>752.1</ele>
        <time>2014-05-01T15:55:27.017Z</time>
      </trkpt>
      <trkpt lat="46.40222" lon="5.69722">
        <ele>754.3</ele>
        <time>2014-05-01T15:55:30.018Z</time>
      </trkpt>
      <trkpt lat="46.40219" lon="5.69732">
        <ele>750.5</ele>
        <time>2014-05-01T15:55:33.018Z</time>
      </trkpt>
      <trkpt lat="46.40217" lon="5.69738">
        <ele>748.2</ele>
        <time>2014-05-01T15:55:36.018Z</time>
      </trkpt>
      <trkpt lat="46.40218" lon="5.69743">
        <ele>748.8</ele>
        <time>2014-05-01T15:55:39.018Z</time>
      </trkpt>
      <trkpt lat="46.40219" lon="5.69748">
        <ele>749.6</ele>
        <time>2014-05-01T15:55:42.018Z</time>
      </trkpt>
      <trkpt lat="46.40221" lon="5.69754">
        <ele>750</ele>
        <time>2014-05-01T15:55:45.017Z</time>
      </trkpt>
      <trkpt lat="46.40222" lon="5.69759">
        <ele>750.3</ele>
        <time>2014-05-01T15:55:48.033Z</time>
      </trkpt>
      <trkpt lat="46.40226" lon="5.69767">
        <ele>747.3</ele>
        <time>2014-05-01T15:55:51.008Z</time>
      </trkpt>
      <trkpt lat="46.40229" lon="5.69776">
        <ele>746.8</ele>
        <time>2014-05-01T15:55:54.011Z</time>
      </trkpt>
      <trkpt lat="46.40233" lon="5.69785">
        <ele>748.5</ele>
        <time>2014-05-01T15:55:57.007Z</time>
      </trkpt>
      <trkpt lat="46.40238" lon="5.69794">
        <ele>748.4</ele>
        <time>2014-05-01T15:56:00.016Z</time>
      </trkpt>
      <trkpt lat="46.40243" lon="5.69803">
        <ele>748.1</ele>
        <time>2014-05-01T15:56:03.016Z</time>
      </trkpt>
      <trkpt lat="46.40247" lon="5.69812">
        <ele>754.7</ele>
        <time>2014-05-01T15:56:06.073Z</time>
      </trkpt>
      <trkpt lat="46.40251" lon="5.69821">
        <ele>755.9</ele>
        <time>2014-05-01T15:56:09.017Z</time>
      </trkpt>
      <trkpt lat="46.40254" lon="5.69832">
        <ele>757.2</ele>
        <time>2014-05-01T15:56:12.028Z</time>
      </trkpt>
      <trkpt lat="46.40258" lon="5.69842">
        <ele>756.4</ele>
        <time>2014-05-01T15:56:15.016Z</time>
      </trkpt>
      <trkpt lat="46.40263" lon="5.6985">
        <ele>756.5</ele>
        <time>2014-05-01T15:56:18.017Z</time>
      </trkpt>
      <trkpt lat="46.4027" lon="5.69858">
        <ele>757.7</ele>
        <time>2014-05-01T15:56:21.016Z</time>
      </trkpt>
      <trkpt lat="46.40275" lon="5.69867">
        <ele>757.3</ele>
        <time>2014-05-01T15:56:24.150Z</time>
      </trkpt>
      <trkpt lat="46.4028" lon="5.69878">
        <ele>756.7</ele>
        <time>2014-05-01T15:56:27.048Z</time>
      </trkpt>
      <trkpt lat="46.40286" lon="5.69892">
        <ele>746.1</ele>
        <time>2014-05-01T15:56:30.020Z</time>
      </trkpt>
      <trkpt lat="46.4029" lon="5.69906">
        <ele>747.2</ele>
        <time>2014-05-01T15:56:33.102Z</time>
      </trkpt>
      <trkpt lat="46.4029" lon="5.69917">
        <ele>748.5</ele>
        <time>2014-05-01T15:56:36.052Z</time>
      </trkpt>
      <trkpt lat="46.4029" lon="5.69925">
        <ele>748</ele>
        <time>2014-05-01T15:56:39.031Z</time>
      </trkpt>
      <trkpt lat="46.40289" lon="5.69933">
        <ele>747.9</ele>
        <time>2014-05-01T15:56:42.015Z</time>
      </trkpt>
      <trkpt lat="46.40288" lon="5.6994">
        <ele>745.4</ele>
        <time>2014-05-01T15:56:45.015Z</time>
      </trkpt>
      <trkpt lat="46.40288" lon="5.69945">
        <ele>743.7</ele>
        <time>2014-05-01T15:56:48.015Z</time>
      </trkpt>
      <trkpt lat="46.4029" lon="5.69951">
        <ele>742</ele>
        <time>2014-05-01T15:56:51.047Z</time>
      </trkpt>
      <trkpt lat="46.40293" lon="5.69963">
        <ele>739.6</ele>
        <time>2014-05-01T15:56:54.064Z</time>
      </trkpt>
      <trkpt lat="46.40299" lon="5.69976">
        <ele>739.5</ele>
        <time>2014-05-01T15:56:57.035Z</time>
      </trkpt>
      <trkpt lat="46.40303" lon="5.69988">
        <ele>740.1</ele>
        <time>2014-05-01T15:57:00.027Z</time>
      </trkpt>
      <trkpt lat="46.40303" lon="5.69998">
        <ele>739.2</ele>
        <time>2014-05-01T15:57:03.039Z</time>
      </trkpt>
      <trkpt lat="46.40298" lon="5.70005">
        <ele>740.2</ele>
        <time>2014-05-01T15:57:06.053Z</time>
      </trkpt>
      <trkpt lat="46.4029" lon="5.70016">
        <ele>741</ele>
        <time>2014-05-01T15:57:09.017Z</time>
      </trkpt>
      <trkpt lat="46.40282" lon="5.70029">
        <ele>739.9</ele>
        <time>2014-05-01T15:57:12.045Z</time>
      </trkpt>
      <trkpt lat="46.40275" lon="5.70042">
        <ele>739.5</ele>
        <time>2014-05-01T15:57:15.016Z</time>
      </trkpt>
      <trkpt lat="46.40271" lon="5.7005">
        <ele>736.4</ele>
        <time>2014-05-01T15:57:18.017Z</time>
      </trkpt>
      <trkpt lat="46.40266" lon="5.70052">
        <ele>737.8</ele>
        <time>2014-05-01T15:57:21.022Z</time>
      </trkpt>
      <trkpt lat="46.40262" lon="5.70056">
        <ele>737.8</ele>
        <time>2014-05-01T15:57:24.016Z</time>
      </trkpt>
      <trkpt lat="46.40255" lon="5.70066">
        <ele>737.7</ele>
        <time>2014-05-01T15:57:27.018Z</time>
      </trkpt>
      <trkpt lat="46.40243" lon="5.70082">
        <ele>735.4</ele>
        <time>2014-05-01T15:57:30.017Z</time>
      </trkpt>
      <trkpt lat="46.40234" lon="5.70098">
        <ele>733.1</ele>
        <time>2014-05-01T15:57:33.018Z</time>
      </trkpt>
      <trkpt lat="46.40228" lon="5.7011">
        <ele>728</ele>
        <time>2014-05-01T15:57:36.072Z</time>
      </trkpt>
      <trkpt lat="46.40232" lon="5.70126">
        <ele>722.1</ele>
        <time>2014-05-01T15:57:39.016Z</time>
      </trkpt>
      <trkpt lat="46.40233" lon="5.70134">
        <ele>726.1</ele>
        <time>2014-05-01T15:57:42.018Z</time>
      </trkpt>
      <trkpt lat="46.40233" lon="5.70136">
        <ele>719.3</ele>
        <time>2014-05-01T15:57:45.025Z</time>
      </trkpt>
      <trkpt lat="46.40237" lon="5.70145">
        <ele>715.7</ele>
        <time>2014-05-01T15:57:48.032Z</time>
      </trkpt>
      <trkpt lat="46.4024" lon="5.70151">
        <ele>716.7</ele>
        <time>2014-05-01T15:57:51.016Z</time>
      </trkpt>
      <trkpt lat="46.40243" lon="5.70157">
        <ele>716.6</ele>
        <time>2014-05-01T15:57:54.038Z</time>
      </trkpt>
      <trkpt lat="46.40244" lon="5.7016">
        <ele>715.4</ele>
        <time>2014-05-01T15:57:57.018Z</time>
      </trkpt>
      <trkpt lat="46.40243" lon="5.7016">
        <ele>715.1</ele>
        <time>2014-05-01T15:58:00.045Z</time>
      </trkpt>
      <trkpt lat="46.40241" lon="5.70162">
        <ele>714.5</ele>
        <time>2014-05-01T15:58:03.058Z</time>
      </trkpt>
      <trkpt lat="46.40241" lon="5.70162">
        <ele>714.4</ele>
        <time>2014-05-01T15:58:06.019Z</time>
      </trkpt>
      <trkpt lat="46.40241" lon="5.70162">
        <ele>714.4</ele>
        <time>2014-05-01T15:58:09.123Z</time>
      </trkpt>
      <trkpt lat="46.40241" lon="5.70162">
        <ele>714.5</ele>
        <time>2014-05-01T15:58:12.063Z</time>
      </trkpt>
      <trkpt lat="46.40241" lon="5.70162">
        <ele>714.5</ele>
        <time>2014-05-01T15:58:15.025Z</time>
      </trkpt>
      <trkpt lat="46.40213" lon="5.7017">
        <ele>714.7</ele>
        <time>2014-05-01T15:58:18.079Z</time>
      </trkpt>
      <trkpt lat="46.40208" lon="5.70174">
        <ele>715.2</ele>
        <time>2014-05-01T15:58:21.052Z</time>
      </trkpt>
      <trkpt lat="46.40201" lon="5.70177">
        <ele>716.7</ele>
        <time>2014-05-01T15:58:24.044Z</time>
      </trkpt>
      <trkpt lat="46.40193" lon="5.7018">
        <ele>716.4</ele>
        <time>2014-05-01T15:58:27.019Z</time>
      </trkpt>
      <trkpt lat="46.40183" lon="5.70183">
        <ele>718</ele>
        <time>2014-05-01T15:58:30.019Z</time>
      </trkpt>
      <trkpt lat="46.40174" lon="5.70186">
        <ele>718.4</ele>
        <time>2014-05-01T15:58:33.018Z</time>
      </trkpt>
      <trkpt lat="46.40163" lon="5.70191">
        <ele>718.7</ele>
        <time>2014-05-01T15:58:36.018Z</time>
      </trkpt>
      <trkpt lat="46.40156" lon="5.70194">
        <ele>718.6</ele>
        <time>2014-05-01T15:58:39.017Z</time>
      </trkpt>
      <trkpt lat="46.40152" lon="5.70196">
        <ele>718.6</ele>
        <time>2014-05-01T15:58:42.019Z</time>
      </trkpt>
      <trkpt lat="46.40148" lon="5.70198">
        <ele>718.2</ele>
        <time>2014-05-01T15:58:45.017Z</time>
      </trkpt>
      <trkpt lat="46.40146" lon="5.70199">
        <ele>718.3</ele>
        <time>2014-05-01T15:58:48.018Z</time>
      </trkpt>
      <trkpt lat="46.40146" lon="5.702">
        <ele>718.4</ele>
        <time>2014-05-01T15:58:51.018Z</time>
      </trkpt>
      <trkpt lat="46.40146" lon="5.702">
        <ele>718.4</ele>
        <time>2014-05-01T15:58:54.019Z</time>
      </trkpt>
      <trkpt lat="46.40146" lon="5.702">
        <ele>718.5</ele>
        <time>2014-05-01T15:58:57.019Z</time>
      </trkpt>
      <trkpt lat="46.4012" lon="5.70206">
        <ele>717.5</ele>
        <time>2014-05-01T15:59:00.019Z</time>
      </trkpt>
      <trkpt lat="46.40105" lon="5.7021">
        <ele>717.4</ele>
        <time>2014-05-01T15:59:03.018Z</time>
      </trkpt>
      <trkpt lat="46.40094" lon="5.70213">
        <ele>717.4</ele>
        <time>2014-05-01T15:59:06.019Z</time>
      </trkpt>
      <trkpt lat="46.40086" lon="5.70216">
        <ele>718.2</ele>
        <time>2014-05-01T15:59:09.019Z</time>
      </trkpt>
      <trkpt lat="46.40079" lon="5.70218">
        <ele>718.6</ele>
        <time>2014-05-01T15:59:12.017Z</time>
      </trkpt>
      <trkpt lat="46.40069" lon="5.70221">
        <ele>716.9</ele>
        <time>2014-05-01T15:59:15.016Z</time>
      </trkpt>
      <trkpt lat="46.40059" lon="5.70224">
        <ele>715.5</ele>
        <time>2014-05-01T15:59:18.018Z</time>
      </trkpt>
      <trkpt lat="46.40047" lon="5.70226">
        <ele>715.9</ele>
        <time>2014-05-01T15:59:21.018Z</time>
      </trkpt>
      <trkpt lat="46.40037" lon="5.70227">
        <ele>716.9</ele>
        <time>2014-05-01T15:59:24.018Z</time>
      </trkpt>
      <trkpt lat="46.40028" lon="5.70228">
        <ele>718</ele>
        <time>2014-05-01T15:59:27.019Z</time>
      </trkpt>
      <trkpt lat="46.40019" lon="5.7023">
        <ele>717.4</ele>
        <time>2014-05-01T15:59:30.018Z</time>
      </trkpt>
      <trkpt lat="46.40011" lon="5.70229">
        <ele>717.1</ele>
        <time>2014-05-01T15:59:33.017Z</time>
      </trkpt>
      <trkpt lat="46.40005" lon="5.70229">
        <ele>716.7</ele>
        <time>2014-05-01T15:59:36.019Z</time>
      </trkpt>
      <trkpt lat="46.39999" lon="5.70228">
        <ele>718.8</ele>
        <time>2014-05-01T15:59:39.019Z</time>
      </trkpt>
      <trkpt lat="46.39991" lon="5.70227">
        <ele>717.1</ele>
        <time>2014-05-01T15:59:42.018Z</time>
      </trkpt>
      <trkpt lat="46.39981" lon="5.70227">
        <ele>716.8</ele>
        <time>2014-05-01T15:59:45.018Z</time>
      </trkpt>
      <trkpt lat="46.39972" lon="5.70226">
        <ele>715.8</ele>
        <time>2014-05-01T15:59:48.019Z</time>
      </trkpt>
      <trkpt lat="46.39961" lon="5.70228">
        <ele>715.8</ele>
        <time>2014-05-01T15:59:51.019Z</time>
      </trkpt>
      <trkpt lat="46.39951" lon="5.70226">
        <ele>715.8</ele>
        <time>2014-05-01T15:59:54.019Z</time>
      </trkpt>
      <trkpt lat="46.39942" lon="5.70221">
        <ele>717.2</ele>
        <time>2014-05-01T15:59:57.017Z</time>
      </trkpt>
      <trkpt lat="46.39937" lon="5.70217">
        <ele>716.8</ele>
        <time>2014-05-01T16:00:00.018Z</time>
      </trkpt>
      <trkpt lat="46.39933" lon="5.7021">
        <ele>714.1</ele>
        <time>2014-05-01T16:00:03.017Z</time>
      </trkpt>
      <trkpt lat="46.39927" lon="5.70207">
        <ele>712.8</ele>
        <time>2014-05-01T16:00:06.018Z</time>
      </trkpt>
      <trkpt lat="46.3992" lon="5.70204">
        <ele>709.8</ele>
        <time>2014-05-01T16:00:09.017Z</time>
      </trkpt>
      <trkpt lat="46.39912" lon="5.70202">
        <ele>709.8</ele>
        <time>2014-05-01T16:00:12.018Z</time>
      </trkpt>
      <trkpt lat="46.39902" lon="5.70201">
        <ele>709.5</ele>
        <time>2014-05-01T16:00:15.017Z</time>
      </trkpt>
      <trkpt lat="46.39892" lon="5.702">
        <ele>708.5</ele>
        <time>2014-05-01T16:00:18.016Z</time>
      </trkpt>
      <trkpt lat="46.39883" lon="5.70198">
        <ele>707</ele>
        <time>2014-05-01T16:00:21.016Z</time>
      </trkpt>
      <trkpt lat="46.39874" lon="5.70198">
        <ele>706.4</ele>
        <time>2014-05-01T16:00:24.019Z</time>
      </trkpt>
      <trkpt lat="46.39867" lon="5.70196">
        <ele>707.7</ele>
        <time>2014-05-01T16:00:27.017Z</time>
      </trkpt>
      <trkpt lat="46.39861" lon="5.70196">
        <ele>708.5</ele>
        <time>2014-05-01T16:00:30.017Z</time>
      </trkpt>
      <trkpt lat="46.39856" lon="5.70196">
        <ele>709.2</ele>
        <time>2014-05-01T16:00:33.075Z</time>
      </trkpt>
      <trkpt lat="46.39851" lon="5.70198">
        <ele>709.8</ele>
        <time>2014-05-01T16:00:36.066Z</time>
      </trkpt>
      <trkpt lat="46.39845" lon="5.70203">
        <ele>709.8</ele>
        <time>2014-05-01T16:00:39.028Z</time>
      </trkpt>
      <trkpt lat="46.39839" lon="5.70207">
        <ele>710.4</ele>
        <time>2014-05-01T16:00:42.081Z</time>
      </trkpt>
      <trkpt lat="46.39835" lon="5.7021">
        <ele>711.3</ele>
        <time>2014-05-01T16:00:45.076Z</time>
      </trkpt>
      <trkpt lat="46.3983" lon="5.70214">
        <ele>710.8</ele>
        <time>2014-05-01T16:00:48.022Z</time>
      </trkpt>
      <trkpt lat="46.39825" lon="5.7022">
        <ele>709.7</ele>
        <time>2014-05-01T16:00:51.048Z</time>
      </trkpt>
      <trkpt lat="46.39817" lon="5.70226">
        <ele>709.5</ele>
        <time>2014-05-01T16:00:54.071Z</time>
      </trkpt>
      <trkpt lat="46.39809" lon="5.70231">
        <ele>709.4</ele>
        <time>2014-05-01T16:00:57.037Z</time>
      </trkpt>
      <trkpt lat="46.39801" lon="5.70238">
        <ele>708.8</ele>
        <time>2014-05-01T16:01:00.022Z</time>
      </trkpt>
      <trkpt lat="46.39792" lon="5.70244">
        <ele>710.5</ele>
        <time>2014-05-01T16:01:03.065Z</time>
      </trkpt>
      <trkpt lat="46.39784" lon="5.70249">
        <ele>711.2</ele>
        <time>2014-05-01T16:01:06.053Z</time>
      </trkpt>
      <trkpt lat="46.39778" lon="5.70255">
        <ele>711.8</ele>
        <time>2014-05-01T16:01:09.022Z</time>
      </trkpt>
      <trkpt lat="46.39774" lon="5.70263">
        <ele>712.2</ele>
        <time>2014-05-01T16:01:12.035Z</time>
      </trkpt>
      <trkpt lat="46.3977" lon="5.70268">
        <ele>714.7</ele>
        <time>2014-05-01T16:01:15.058Z</time>
      </trkpt>
      <trkpt lat="46.39766" lon="5.70274">
        <ele>714.3</ele>
        <time>2014-05-01T16:01:18.018Z</time>
      </trkpt>
      <trkpt lat="46.39759" lon="5.7028">
        <ele>716.8</ele>
        <time>2014-05-01T16:01:21.017Z</time>
      </trkpt>
      <trkpt lat="46.3975" lon="5.70285">
        <ele>718.2</ele>
        <time>2014-05-01T16:01:24.017Z</time>
      </trkpt>
      <trkpt lat="46.39743" lon="5.7029">
        <ele>718</ele>
        <time>2014-05-01T16:01:27.017Z</time>
      </trkpt>
      <trkpt lat="46.3974" lon="5.70297">
        <ele>717.5</ele>
        <time>2014-05-01T16:01:30.017Z</time>
      </trkpt>
      <trkpt lat="46.39733" lon="5.70306">
        <ele>717.7</ele>
        <time>2014-05-01T16:01:33.017Z</time>
      </trkpt>
      <trkpt lat="46.39726" lon="5.70314">
        <ele>716.8</ele>
        <time>2014-05-01T16:01:36.056Z</time>
      </trkpt>
      <trkpt lat="46.39718" lon="5.70321">
        <ele>718</ele>
        <time>2014-05-01T16:01:39.031Z</time>
      </trkpt>
      <trkpt lat="46.39711" lon="5.70325">
        <ele>720.1</ele>
        <time>2014-05-01T16:01:42.042Z</time>
      </trkpt>
      <trkpt lat="46.39703" lon="5.7033">
        <ele>718</ele>
        <time>2014-05-01T16:01:45.066Z</time>
      </trkpt>
      <trkpt lat="46.39694" lon="5.70336">
        <ele>718.1</ele>
        <time>2014-05-01T16:01:48.049Z</time>
      </trkpt>
      <trkpt lat="46.39687" lon="5.7034">
        <ele>718.1</ele>
        <time>2014-05-01T16:01:51.018Z</time>
      </trkpt>
      <trkpt lat="46.39678" lon="5.70344">
        <ele>718.4</ele>
        <time>2014-05-01T16:01:54.075Z</time>
      </trkpt>
      <trkpt lat="46.39667" lon="5.70348">
        <ele>718.9</ele>
        <time>2014-05-01T16:01:57.051Z</time>
      </trkpt>
      <trkpt lat="46.39658" lon="5.70349">
        <ele>717.8</ele>
        <time>2014-05-01T16:02:00.018Z</time>
      </trkpt>
      <trkpt lat="46.39648" lon="5.70349">
        <ele>719.4</ele>
        <time>2014-05-01T16:02:03.017Z</time>
      </trkpt>
      <trkpt lat="46.3964" lon="5.70347">
        <ele>717.9</ele>
        <time>2014-05-01T16:02:06.018Z</time>
      </trkpt>
      <trkpt lat="46.39629" lon="5.70341">
        <ele>711.4</ele>
        <time>2014-05-01T16:02:09.017Z</time>
      </trkpt>
      <trkpt lat="46.39618" lon="5.70335">
        <ele>708.5</ele>
        <time>2014-05-01T16:02:12.018Z</time>
      </trkpt>
      <trkpt lat="46.39609" lon="5.70331">
        <ele>708.5</ele>
        <time>2014-05-01T16:02:15.017Z</time>
      </trkpt>
      <trkpt lat="46.39602" lon="5.70326">
        <ele>709.5</ele>
        <time>2014-05-01T16:02:18.017Z</time>
      </trkpt>
      <trkpt lat="46.39596" lon="5.70321">
        <ele>710.5</ele>
        <time>2014-05-01T16:02:21.017Z</time>
      </trkpt>
      <trkpt lat="46.39588" lon="5.70318">
        <ele>709.3</ele>
        <time>2014-05-01T16:02:24.048Z</time>
      </trkpt>
      <trkpt lat="46.39578" lon="5.70315">
        <ele>703</ele>
        <time>2014-05-01T16:02:27.022Z</time>
      </trkpt>
      <trkpt lat="46.39567" lon="5.70313">
        <ele>702.3</ele>
        <time>2014-05-01T16:02:30.038Z</time>
      </trkpt>
      <trkpt lat="46.39558" lon="5.70313">
        <ele>701.8</ele>
        <time>2014-05-01T16:02:33.041Z</time>
      </trkpt>
      <trkpt lat="46.39549" lon="5.70312">
        <ele>701.5</ele>
        <time>2014-05-01T16:02:36.035Z</time>
      </trkpt>
      <trkpt lat="46.3954" lon="5.70312">
        <ele>700.6</ele>
        <time>2014-05-01T16:02:39.018Z</time>
      </trkpt>
      <trkpt lat="46.39528" lon="5.7031">
        <ele>694.4</ele>
        <time>2014-05-01T16:02:42.093Z</time>
      </trkpt>
      <trkpt lat="46.3952" lon="5.70312">
        <ele>698.2</ele>
        <time>2014-05-01T16:02:45.038Z</time>
      </trkpt>
      <trkpt lat="46.39511" lon="5.7031">
        <ele>698.2</ele>
        <time>2014-05-01T16:02:48.020Z</time>
      </trkpt>
      <trkpt lat="46.39504" lon="5.70309">
        <ele>698</ele>
        <time>2014-05-01T16:02:51.035Z</time>
      </trkpt>
      <trkpt lat="46.39497" lon="5.70306">
        <ele>698.8</ele>
        <time>2014-05-01T16:02:54.035Z</time>
      </trkpt>
      <trkpt lat="46.39489" lon="5.70303">
        <ele>698.3</ele>
        <time>2014-05-01T16:02:57.019Z</time>
      </trkpt>
      <trkpt lat="46.39481" lon="5.70302">
        <ele>696.8</ele>
        <time>2014-05-01T16:03:00.093Z</time>
      </trkpt>
      <trkpt lat="46.39475" lon="5.703">
        <ele>698.7</ele>
        <time>2014-05-01T16:03:03.067Z</time>
      </trkpt>
      <trkpt lat="46.39468" lon="5.70297">
        <ele>698.6</ele>
        <time>2014-05-01T16:03:06.020Z</time>
      </trkpt>
      <trkpt lat="46.3946" lon="5.70293">
        <ele>694.2</ele>
        <time>2014-05-01T16:03:09.059Z</time>
      </trkpt>
      <trkpt lat="46.39453" lon="5.7029">
        <ele>691.2</ele>
        <time>2014-05-01T16:03:12.059Z</time>
      </trkpt>
      <trkpt lat="46.39445" lon="5.70288">
        <ele>690.8</ele>
        <time>2014-05-01T16:03:15.019Z</time>
      </trkpt>
      <trkpt lat="46.39436" lon="5.70287">
        <ele>692</ele>
        <time>2014-05-01T16:03:18.034Z</time>
      </trkpt>
      <trkpt lat="46.39428" lon="5.70286">
        <ele>692.3</ele>
        <time>2014-05-01T16:03:21.042Z</time>
      </trkpt>
      <trkpt lat="46.3942" lon="5.70285">
        <ele>691.5</ele>
        <time>2014-05-01T16:03:24.016Z</time>
      </trkpt>
      <trkpt lat="46.39416" lon="5.70283">
        <ele>694.8</ele>
        <time>2014-05-01T16:03:27.016Z</time>
      </trkpt>
      <trkpt lat="46.39412" lon="5.70282">
        <ele>695.6</ele>
        <time>2014-05-01T16:03:30.017Z</time>
      </trkpt>
      <trkpt lat="46.39411" lon="5.70283">
        <ele>694.7</ele>
        <time>2014-05-01T16:03:33.017Z</time>
      </trkpt>
      <trkpt lat="46.39409" lon="5.70283">
        <ele>694.4</ele>
        <time>2014-05-01T16:03:36.016Z</time>
      </trkpt>
      <trkpt lat="46.3941" lon="5.70284">
        <ele>694.7</ele>
        <time>2014-05-01T16:03:39.009Z</time>
      </trkpt>
    </trkseg>
  </trk>
</gpx>